<?xml version="1.0" encoding="UTF-8" standalone="no" ?>
 
<gpx xmlns="http://www.topografix.com/GPX/1/1" creator="bikehike.co.uk" version="1.1" 
    xmlns:xsi="http://www.w3.org/2001/XMLSchema-instance" 
    xsi:schemaLocation="http://www.topografix.com/GPX/1/1 http://www.topografix.com/GPX/1/1/gpx.xsd">


  <trk>
    <name>bas-cal06-act</name>
    <trkseg>
      <trkpt lat="49.940689" lon="4.069884">
       <ele>213.48</ele>
       <time>2014-11-07T21:26:41Z</time>
      </trkpt>
      <trkpt lat="49.940975" lon="4.069758">
       <ele>213.87</ele>
       <time>2014-11-07T21:26:47Z</time>
      </trkpt>
      <trkpt lat="49.945022" lon="4.068141">
       <ele>216.2</ele>
       <time>2014-11-07T21:28:13Z</time>
      </trkpt>
      <trkpt lat="49.948558" lon="4.066619">
       <ele>211.91</ele>
       <time>2014-11-07T21:29:29Z</time>
      </trkpt>
      <trkpt lat="49.948913" lon="4.066449">
       <ele>213.43</ele>
       <time>2014-11-07T21:29:37Z</time>
      </trkpt>
      <trkpt lat="49.949314" lon="4.066181">
       <ele>214.3</ele>
       <time>2014-11-07T21:29:46Z</time>
      </trkpt>
      <trkpt lat="49.949687" lon="4.065814">
       <ele>213.82</ele>
       <time>2014-11-07T21:29:55Z</time>
      </trkpt>
      <trkpt lat="49.951023" lon="4.064360">
       <ele>209.42</ele>
       <time>2014-11-07T21:30:29Z</time>
      </trkpt>
      <trkpt lat="49.952823" lon="4.062457">
       <ele>212.6</ele>
       <time>2014-11-07T21:31:14Z</time>
      </trkpt>
      <trkpt lat="49.953060" lon="4.062101">
       <ele>211.84</ele>
       <time>2014-11-07T21:31:21Z</time>
      </trkpt>
      <trkpt lat="49.953292" lon="4.061675">
       <ele>210.21</ele>
       <time>2014-11-07T21:31:29Z</time>
      </trkpt>
      <trkpt lat="49.953464" lon="4.061182">
       <ele>208.47</ele>
       <time>2014-11-07T21:31:36Z</time>
      </trkpt>
      <trkpt lat="49.953632" lon="4.059992">
       <ele>205.1</ele>
       <time>2014-11-07T21:31:52Z</time>
      </trkpt>
      <trkpt lat="49.953464" lon="4.061182">
       <ele>208.47</ele>
       <time>2014-11-07T21:32:09Z</time>
      </trkpt>
      <trkpt lat="49.953983" lon="4.061172">
       <ele>204.73</ele>
       <time>2014-11-07T21:32:19Z</time>
      </trkpt>
      <trkpt lat="49.954624" lon="4.061131">
       <ele>201.36</ele>
       <time>2014-11-07T21:32:33Z</time>
      </trkpt>
      <trkpt lat="49.954990" lon="4.061046">
       <ele>199.55</ele>
       <time>2014-11-07T21:32:40Z</time>
      </trkpt>
      <trkpt lat="49.955291" lon="4.060746">
       <ele>200.12</ele>
       <time>2014-11-07T21:32:48Z</time>
      </trkpt>
      <trkpt lat="49.955947" lon="4.060037">
       <ele>201.5</ele>
       <time>2014-11-07T21:33:04Z</time>
      </trkpt>
      <trkpt lat="49.956352" lon="4.059155">
       <ele>203.23</ele>
       <time>2014-11-07T21:33:19Z</time>
      </trkpt>
      <trkpt lat="49.956542" lon="4.058825">
       <ele>203.29</ele>
       <time>2014-11-07T21:33:25Z</time>
      </trkpt>
      <trkpt lat="49.957080" lon="4.058257">
       <ele>203.9</ele>
       <time>2014-11-07T21:33:38Z</time>
      </trkpt>
      <trkpt lat="49.957439" lon="4.057805">
       <ele>204.22</ele>
       <time>2014-11-07T21:33:48Z</time>
      </trkpt>
      <trkpt lat="49.957744" lon="4.057160">
       <ele>204.76</ele>
       <time>2014-11-07T21:33:58Z</time>
      </trkpt>
      <trkpt lat="49.958766" lon="4.054533">
       <ele>201.61</ele>
       <time>2014-11-07T21:34:39Z</time>
      </trkpt>
      <trkpt lat="49.958957" lon="4.054103">
       <ele>199.79</ele>
       <time>2014-11-07T21:34:46Z</time>
      </trkpt>
      <trkpt lat="49.959117" lon="4.053954">
       <ele>198.48</ele>
       <time>2014-11-07T21:34:50Z</time>
      </trkpt>
      <trkpt lat="49.959255" lon="4.053965">
       <ele>197.58</ele>
       <time>2014-11-07T21:34:53Z</time>
      </trkpt>
      <trkpt lat="49.959579" lon="4.054070">
       <ele>195.3</ele>
       <time>2014-11-07T21:35:00Z</time>
      </trkpt>
      <trkpt lat="49.959808" lon="4.054211">
       <ele>193.69</ele>
       <time>2014-11-07T21:35:05Z</time>
      </trkpt>
      <trkpt lat="49.960327" lon="4.054419">
       <ele>190.38</ele>
       <time>2014-11-07T21:35:16Z</time>
      </trkpt>
      <trkpt lat="49.960430" lon="4.054423">
       <ele>189.77</ele>
       <time>2014-11-07T21:35:18Z</time>
      </trkpt>
      <trkpt lat="49.960643" lon="4.054334">
       <ele>188.65</ele>
       <time>2014-11-07T21:35:23Z</time>
      </trkpt>
      <trkpt lat="49.960895" lon="4.054261">
       <ele>187.94</ele>
       <time>2014-11-07T21:35:28Z</time>
      </trkpt>
      <trkpt lat="49.961013" lon="4.054255">
       <ele>188.27</ele>
       <time>2014-11-07T21:35:31Z</time>
      </trkpt>
      <trkpt lat="49.961151" lon="4.054281">
       <ele>188.59</ele>
       <time>2014-11-07T21:35:33Z</time>
      </trkpt>
      <trkpt lat="49.961273" lon="4.054356">
       <ele>188.84</ele>
       <time>2014-11-07T21:35:36Z</time>
      </trkpt>
      <trkpt lat="49.961315" lon="4.054349">
       <ele>188.97</ele>
       <time>2014-11-07T21:35:37Z</time>
      </trkpt>
      <trkpt lat="49.961368" lon="4.054401">
       <ele>189.08</ele>
       <time>2014-11-07T21:35:38Z</time>
      </trkpt>
      <trkpt lat="49.961425" lon="4.054381">
       <ele>189.27</ele>
       <time>2014-11-07T21:35:40Z</time>
      </trkpt>
      <trkpt lat="49.961448" lon="4.054337">
       <ele>189.37</ele>
       <time>2014-11-07T21:35:40Z</time>
      </trkpt>
      <trkpt lat="49.961456" lon="4.054257">
       <ele>189.44</ele>
       <time>2014-11-07T21:35:41Z</time>
      </trkpt>
      <trkpt lat="49.961528" lon="4.053997">
       <ele>190.04</ele>
       <time>2014-11-07T21:35:45Z</time>
      </trkpt>
      <trkpt lat="49.961650" lon="4.053727">
       <ele>191.01</ele>
       <time>2014-11-07T21:35:50Z</time>
      </trkpt>
      <trkpt lat="49.961830" lon="4.053256">
       <ele>193.04</ele>
       <time>2014-11-07T21:35:57Z</time>
      </trkpt>
      <trkpt lat="49.962249" lon="4.051887">
       <ele>198.06</ele>
       <time>2014-11-07T21:36:17Z</time>
      </trkpt>
      <trkpt lat="49.962512" lon="4.051527">
       <ele>199.23</ele>
       <time>2014-11-07T21:36:24Z</time>
      </trkpt>
      <trkpt lat="49.962947" lon="4.050540">
       <ele>202.1</ele>
       <time>2014-11-07T21:36:40Z</time>
      </trkpt>
      <trkpt lat="49.963672" lon="4.049006">
       <ele>204.71</ele>
       <time>2014-11-07T21:37:06Z</time>
      </trkpt>
      <trkpt lat="49.963901" lon="4.048439">
       <ele>205.83</ele>
       <time>2014-11-07T21:37:15Z</time>
      </trkpt>
      <trkpt lat="49.964420" lon="4.045928">
       <ele>207.7</ele>
       <time>2014-11-07T21:37:50Z</time>
      </trkpt>
      <trkpt lat="49.964576" lon="4.045285">
       <ele>208.16</ele>
       <time>2014-11-07T21:37:59Z</time>
      </trkpt>
      <trkpt lat="49.965862" lon="4.040983">
       <ele>211</ele>
       <time>2014-11-07T21:39:02Z</time>
      </trkpt>
      <trkpt lat="49.966186" lon="4.039738">
       <ele>211.21</ele>
       <time>2014-11-07T21:39:20Z</time>
      </trkpt>
      <trkpt lat="49.967075" lon="4.036046">
       <ele>216.6</ele>
       <time>2014-11-07T21:40:13Z</time>
      </trkpt>
      <trkpt lat="49.967201" lon="4.035457">
       <ele>217.9</ele>
       <time>2014-11-07T21:40:21Z</time>
      </trkpt>
      <trkpt lat="49.967212" lon="4.034964">
       <ele>218.71</ele>
       <time>2014-11-07T21:40:28Z</time>
      </trkpt>
      <trkpt lat="49.967151" lon="4.034728">
       <ele>219.13</ele>
       <time>2014-11-07T21:40:31Z</time>
      </trkpt>
      <trkpt lat="49.966903" lon="4.034060">
       <ele>221.49</ele>
       <time>2014-11-07T21:40:41Z</time>
      </trkpt>
      <trkpt lat="49.966663" lon="4.033472">
       <ele>224.51</ele>
       <time>2014-11-07T21:40:51Z</time>
      </trkpt>
      <trkpt lat="49.966625" lon="4.032947">
       <ele>225.1</ele>
       <time>2014-11-07T21:40:58Z</time>
      </trkpt>
      <trkpt lat="49.966682" lon="4.032442">
       <ele>225.03</ele>
       <time>2014-11-07T21:41:04Z</time>
      </trkpt>
      <trkpt lat="49.966842" lon="4.031606">
       <ele>225.59</ele>
       <time>2014-11-07T21:41:16Z</time>
      </trkpt>
      <trkpt lat="49.967033" lon="4.030157">
       <ele>227.18</ele>
       <time>2014-11-07T21:41:36Z</time>
      </trkpt>
      <trkpt lat="49.967128" lon="4.029029">
       <ele>228.85</ele>
       <time>2014-11-07T21:41:51Z</time>
      </trkpt>
      <trkpt lat="49.967151" lon="4.028429">
       <ele>231.05</ele>
       <time>2014-11-07T21:41:59Z</time>
      </trkpt>
      <trkpt lat="49.967178" lon="4.025713">
       <ele>236.38</ele>
       <time>2014-11-07T21:42:35Z</time>
      </trkpt>
      <trkpt lat="49.967288" lon="4.025050">
       <ele>235.11</ele>
       <time>2014-11-07T21:42:44Z</time>
      </trkpt>
      <trkpt lat="49.967578" lon="4.023559">
       <ele>232.76</ele>
       <time>2014-11-07T21:43:05Z</time>
      </trkpt>
      <trkpt lat="49.967895" lon="4.021358">
       <ele>230.14</ele>
       <time>2014-11-07T21:43:35Z</time>
      </trkpt>
      <trkpt lat="49.968059" lon="4.020565">
       <ele>231.1</ele>
       <time>2014-11-07T21:43:46Z</time>
      </trkpt>
      <trkpt lat="49.968254" lon="4.019856">
       <ele>233.22</ele>
       <time>2014-11-07T21:43:57Z</time>
      </trkpt>
      <trkpt lat="49.968574" lon="4.018901">
       <ele>235.68</ele>
       <time>2014-11-07T21:44:11Z</time>
      </trkpt>
      <trkpt lat="49.968669" lon="4.018484">
       <ele>235.18</ele>
       <time>2014-11-07T21:44:17Z</time>
      </trkpt>
      <trkpt lat="49.968780" lon="4.017765">
       <ele>235.68</ele>
       <time>2014-11-07T21:44:27Z</time>
      </trkpt>
      <trkpt lat="49.968822" lon="4.017325">
       <ele>235.88</ele>
       <time>2014-11-07T21:44:33Z</time>
      </trkpt>
      <trkpt lat="49.969196" lon="4.014976">
       <ele>233.03</ele>
       <time>2014-11-07T21:45:05Z</time>
      </trkpt>
      <trkpt lat="49.969482" lon="4.012841">
       <ele>231.88</ele>
       <time>2014-11-07T21:45:34Z</time>
      </trkpt>
      <trkpt lat="49.969608" lon="4.011766">
       <ele>231.52</ele>
       <time>2014-11-07T21:45:49Z</time>
      </trkpt>
      <trkpt lat="49.969802" lon="4.011156">
       <ele>232.52</ele>
       <time>2014-11-07T21:45:58Z</time>
      </trkpt>
      <trkpt lat="49.970737" lon="4.009322">
       <ele>234.11</ele>
       <time>2014-11-07T21:46:29Z</time>
      </trkpt>
      <trkpt lat="49.971004" lon="4.008666">
       <ele>233.33</ele>
       <time>2014-11-07T21:46:39Z</time>
      </trkpt>
      <trkpt lat="49.971263" lon="4.007584">
       <ele>231.72</ele>
       <time>2014-11-07T21:46:55Z</time>
      </trkpt>
      <trkpt lat="49.971473" lon="4.006906">
       <ele>230.84</ele>
       <time>2014-11-07T21:47:05Z</time>
      </trkpt>
      <trkpt lat="49.971832" lon="4.006007">
       <ele>228.62</ele>
       <time>2014-11-07T21:47:19Z</time>
      </trkpt>
      <trkpt lat="49.972312" lon="4.004921">
       <ele>227.45</ele>
       <time>2014-11-07T21:47:36Z</time>
      </trkpt>
      <trkpt lat="49.973098" lon="4.003292">
       <ele>225.84</ele>
       <time>2014-11-07T21:48:03Z</time>
      </trkpt>
      <trkpt lat="49.973434" lon="4.002419">
       <ele>225.07</ele>
       <time>2014-11-07T21:48:17Z</time>
      </trkpt>
      <trkpt lat="49.973590" lon="4.000122">
       <ele>228.75</ele>
       <time>2014-11-07T21:48:48Z</time>
      </trkpt>
      <trkpt lat="49.973659" lon="3.999814">
       <ele>229.31</ele>
       <time>2014-11-07T21:48:52Z</time>
      </trkpt>
      <trkpt lat="49.974281" lon="3.998548">
       <ele>231.37</ele>
       <time>2014-11-07T21:49:13Z</time>
      </trkpt>
      <trkpt lat="49.974491" lon="3.997911">
       <ele>230.72</ele>
       <time>2014-11-07T21:49:23Z</time>
      </trkpt>
      <trkpt lat="49.976024" lon="3.991727">
       <ele>225.75</ele>
       <time>2014-11-07T21:50:51Z</time>
      </trkpt>
      <trkpt lat="49.976505" lon="3.989624">
       <ele>228.37</ele>
       <time>2014-11-07T21:51:21Z</time>
      </trkpt>
      <trkpt lat="49.976879" lon="3.988079">
       <ele>227.57</ele>
       <time>2014-11-07T21:51:43Z</time>
      </trkpt>
      <trkpt lat="49.977352" lon="3.986243">
       <ele>227.24</ele>
       <time>2014-11-07T21:52:10Z</time>
      </trkpt>
      <trkpt lat="49.977584" lon="3.985160">
       <ele>228.89</ele>
       <time>2014-11-07T21:52:25Z</time>
      </trkpt>
      <trkpt lat="49.977764" lon="3.984643">
       <ele>229.32</ele>
       <time>2014-11-07T21:52:33Z</time>
      </trkpt>
      <trkpt lat="49.977985" lon="3.984365">
       <ele>229.58</ele>
       <time>2014-11-07T21:52:38Z</time>
      </trkpt>
      <trkpt lat="49.978439" lon="3.984034">
       <ele>229.88</ele>
       <time>2014-11-07T21:52:49Z</time>
      </trkpt>
      <trkpt lat="49.978668" lon="3.983762">
       <ele>229.49</ele>
       <time>2014-11-07T21:52:55Z</time>
      </trkpt>
      <trkpt lat="49.977916" lon="3.982736">
       <ele>230.86</ele>
       <time>2014-11-07T21:53:16Z</time>
      </trkpt>
      <trkpt lat="49.976909" lon="3.981457">
       <ele>230.96</ele>
       <time>2014-11-07T21:53:43Z</time>
      </trkpt>
      <trkpt lat="49.976757" lon="3.981287">
       <ele>231.35</ele>
       <time>2014-11-07T21:53:46Z</time>
      </trkpt>
      <trkpt lat="49.976341" lon="3.980911">
       <ele>231.16</ele>
       <time>2014-11-07T21:53:56Z</time>
      </trkpt>
      <trkpt lat="49.975887" lon="3.980406">
       <ele>230.13</ele>
       <time>2014-11-07T21:54:08Z</time>
      </trkpt>
      <trkpt lat="49.975624" lon="3.980139">
       <ele>230.42</ele>
       <time>2014-11-07T21:54:14Z</time>
      </trkpt>
      <trkpt lat="49.975208" lon="3.979753">
       <ele>231.35</ele>
       <time>2014-11-07T21:54:25Z</time>
      </trkpt>
      <trkpt lat="49.974975" lon="3.979614">
       <ele>231.48</ele>
       <time>2014-11-07T21:54:30Z</time>
      </trkpt>
      <trkpt lat="49.974449" lon="3.979387">
       <ele>229.94</ele>
       <time>2014-11-07T21:54:41Z</time>
      </trkpt>
      <trkpt lat="49.973182" lon="3.978914">
       <ele>227.05</ele>
       <time>2014-11-07T21:55:08Z</time>
      </trkpt>
      <trkpt lat="49.972782" lon="3.978657">
       <ele>227.4</ele>
       <time>2014-11-07T21:55:17Z</time>
      </trkpt>
      <trkpt lat="49.972408" lon="3.978466">
       <ele>227.66</ele>
       <time>2014-11-07T21:55:25Z</time>
      </trkpt>
      <trkpt lat="49.971786" lon="3.977885">
       <ele>225.75</ele>
       <time>2014-11-07T21:55:40Z</time>
      </trkpt>
      <trkpt lat="49.970874" lon="3.977092">
       <ele>225.93</ele>
       <time>2014-11-07T21:56:02Z</time>
      </trkpt>
      <trkpt lat="49.970130" lon="3.976083">
       <ele>226.25</ele>
       <time>2014-11-07T21:56:22Z</time>
      </trkpt>
      <trkpt lat="49.969814" lon="3.975783">
       <ele>226.09</ele>
       <time>2014-11-07T21:56:30Z</time>
      </trkpt>
      <trkpt lat="49.969207" lon="3.975492">
       <ele>225.74</ele>
       <time>2014-11-07T21:56:43Z</time>
      </trkpt>
      <trkpt lat="49.968669" lon="3.975172">
       <ele>225.09</ele>
       <time>2014-11-07T21:56:55Z</time>
      </trkpt>
      <trkpt lat="49.967609" lon="3.974421">
       <ele>224.12</ele>
       <time>2014-11-07T21:57:19Z</time>
      </trkpt>
      <trkpt lat="49.966503" lon="3.973367">
       <ele>222.28</ele>
       <time>2014-11-07T21:57:46Z</time>
      </trkpt>
      <trkpt lat="49.965732" lon="3.972471">
       <ele>223.47</ele>
       <time>2014-11-07T21:58:06Z</time>
      </trkpt>
      <trkpt lat="49.966259" lon="3.968735">
       <ele>223.03</ele>
       <time>2014-11-07T21:58:57Z</time>
      </trkpt>
      <trkpt lat="49.967781" lon="3.957412">
       <ele>222.57</ele>
       <time>2014-11-07T22:01:31Z</time>
      </trkpt>
      <trkpt lat="49.972476" lon="3.924051">
       <ele>225.79</ele>
       <time>2014-11-07T22:09:07Z</time>
      </trkpt>
      <trkpt lat="49.972713" lon="3.922364">
       <ele>224.52</ele>
       <time>2014-11-07T22:09:30Z</time>
      </trkpt>
      <trkpt lat="49.973037" lon="3.922153">
       <ele>223.63</ele>
       <time>2014-11-07T22:09:37Z</time>
      </trkpt>
      <trkpt lat="49.974117" lon="3.921355">
       <ele>222.04</ele>
       <time>2014-11-07T22:10:02Z</time>
      </trkpt>
      <trkpt lat="49.974643" lon="3.921050">
       <ele>221.28</ele>
       <time>2014-11-07T22:10:14Z</time>
      </trkpt>
      <trkpt lat="49.975189" lon="3.920876">
       <ele>221.18</ele>
       <time>2014-11-07T22:10:25Z</time>
      </trkpt>
      <trkpt lat="49.975238" lon="3.920825">
       <ele>221.28</ele>
       <time>2014-11-07T22:10:26Z</time>
      </trkpt>
      <trkpt lat="49.975280" lon="3.920911">
       <ele>221.24</ele>
       <time>2014-11-07T22:10:28Z</time>
      </trkpt>
      <trkpt lat="49.975322" lon="3.920936">
       <ele>221.26</ele>
       <time>2014-11-07T22:10:29Z</time>
      </trkpt>
      <trkpt lat="49.975360" lon="3.920933">
       <ele>221.31</ele>
       <time>2014-11-07T22:10:30Z</time>
      </trkpt>
      <trkpt lat="49.975425" lon="3.920864">
       <ele>221.47</ele>
       <time>2014-11-07T22:10:31Z</time>
      </trkpt>
      <trkpt lat="49.975433" lon="3.920722">
       <ele>221.39</ele>
       <time>2014-11-07T22:10:33Z</time>
      </trkpt>
      <trkpt lat="49.975387" lon="3.920639">
       <ele>221.23</ele>
       <time>2014-11-07T22:10:35Z</time>
      </trkpt>
      <trkpt lat="49.975353" lon="3.920622">
       <ele>221.17</ele>
       <time>2014-11-07T22:10:35Z</time>
      </trkpt>
      <trkpt lat="49.975509" lon="3.920411">
       <ele>221.1</ele>
       <time>2014-11-07T22:10:40Z</time>
      </trkpt>
      <trkpt lat="49.975788" lon="3.919912">
       <ele>220.85</ele>
       <time>2014-11-07T22:10:48Z</time>
      </trkpt>
      <trkpt lat="49.976070" lon="3.919476">
       <ele>220.55</ele>
       <time>2014-11-07T22:10:57Z</time>
      </trkpt>
      <trkpt lat="49.976196" lon="3.919209">
       <ele>220.46</ele>
       <time>2014-11-07T22:11:01Z</time>
      </trkpt>
      <trkpt lat="49.976234" lon="3.918255">
       <ele>219.96</ele>
       <time>2014-11-07T22:11:14Z</time>
      </trkpt>
      <trkpt lat="49.976295" lon="3.917680">
       <ele>220.11</ele>
       <time>2014-11-07T22:11:22Z</time>
      </trkpt>
      <trkpt lat="49.976177" lon="3.917196">
       <ele>218.95</ele>
       <time>2014-11-07T22:11:28Z</time>
      </trkpt>
      <trkpt lat="49.976188" lon="3.916851">
       <ele>217.96</ele>
       <time>2014-11-07T22:11:33Z</time>
      </trkpt>
      <trkpt lat="49.976303" lon="3.916862">
       <ele>218.16</ele>
       <time>2014-11-07T22:11:35Z</time>
      </trkpt>
      <trkpt lat="49.976318" lon="3.916754">
       <ele>217.85</ele>
       <time>2014-11-07T22:11:37Z</time>
      </trkpt>
      <trkpt lat="49.976711" lon="3.915879">
       <ele>216.12</ele>
       <time>2014-11-07T22:11:51Z</time>
      </trkpt>
      <trkpt lat="49.976966" lon="3.915226">
       <ele>213.87</ele>
       <time>2014-11-07T22:12:01Z</time>
      </trkpt>
      <trkpt lat="49.977027" lon="3.915122">
       <ele>213.7</ele>
       <time>2014-11-07T22:12:03Z</time>
      </trkpt>
      <trkpt lat="49.977100" lon="3.915050">
       <ele>213.71</ele>
       <time>2014-11-07T22:12:05Z</time>
      </trkpt>
      <trkpt lat="49.977184" lon="3.915004">
       <ele>213.87</ele>
       <time>2014-11-07T22:12:07Z</time>
      </trkpt>
      <trkpt lat="49.977474" lon="3.914921">
       <ele>214.62</ele>
       <time>2014-11-07T22:12:13Z</time>
      </trkpt>
      <trkpt lat="49.977573" lon="3.914870">
       <ele>214.76</ele>
       <time>2014-11-07T22:12:15Z</time>
      </trkpt>
      <trkpt lat="49.977687" lon="3.914767">
       <ele>214.86</ele>
       <time>2014-11-07T22:12:18Z</time>
      </trkpt>
      <trkpt lat="49.977775" lon="3.914621">
       <ele>214.9</ele>
       <time>2014-11-07T22:12:21Z</time>
      </trkpt>
      <trkpt lat="49.977855" lon="3.914458">
       <ele>215.01</ele>
       <time>2014-11-07T22:12:23Z</time>
      </trkpt>
      <trkpt lat="49.977909" lon="3.914252">
       <ele>215.05</ele>
       <time>2014-11-07T22:12:26Z</time>
      </trkpt>
      <trkpt lat="49.978019" lon="3.913438">
       <ele>214.65</ele>
       <time>2014-11-07T22:12:37Z</time>
      </trkpt>
      <trkpt lat="49.978061" lon="3.913284">
       <ele>214.75</ele>
       <time>2014-11-07T22:12:40Z</time>
      </trkpt>
      <trkpt lat="49.978096" lon="3.913223">
       <ele>214.97</ele>
       <time>2014-11-07T22:12:41Z</time>
      </trkpt>
      <trkpt lat="49.978183" lon="3.913125">
       <ele>215.42</ele>
       <time>2014-11-07T22:12:43Z</time>
      </trkpt>
      <trkpt lat="49.978355" lon="3.913027">
       <ele>216.06</ele>
       <time>2014-11-07T22:12:47Z</time>
      </trkpt>
      <trkpt lat="49.979553" lon="3.912506">
       <ele>220.39</ele>
       <time>2014-11-07T22:13:12Z</time>
      </trkpt>
      <trkpt lat="49.979576" lon="3.912620">
       <ele>220.4</ele>
       <time>2014-11-07T22:13:14Z</time>
      </trkpt>
      <trkpt lat="49.979846" lon="3.912218">
       <ele>220.9</ele>
       <time>2014-11-07T22:13:22Z</time>
      </trkpt>
      <trkpt lat="49.980171" lon="3.911685">
       <ele>220.25</ele>
       <time>2014-11-07T22:13:32Z</time>
      </trkpt>
      <trkpt lat="49.980453" lon="3.911500">
       <ele>220.16</ele>
       <time>2014-11-07T22:13:38Z</time>
      </trkpt>
      <trkpt lat="49.980930" lon="3.911236">
       <ele>220.42</ele>
       <time>2014-11-07T22:13:48Z</time>
      </trkpt>
      <trkpt lat="49.981117" lon="3.911096">
       <ele>220.08</ele>
       <time>2014-11-07T22:13:53Z</time>
      </trkpt>
      <trkpt lat="49.981407" lon="3.910752">
       <ele>219.18</ele>
       <time>2014-11-07T22:14:00Z</time>
      </trkpt>
      <trkpt lat="49.981685" lon="3.910485">
       <ele>218.59</ele>
       <time>2014-11-07T22:14:07Z</time>
      </trkpt>
      <trkpt lat="49.982460" lon="3.909938">
       <ele>218.95</ele>
       <time>2014-11-07T22:14:25Z</time>
      </trkpt>
      <trkpt lat="49.982566" lon="3.909768">
       <ele>218.92</ele>
       <time>2014-11-07T22:14:28Z</time>
      </trkpt>
      <trkpt lat="49.983394" lon="3.907052">
       <ele>217.79</ele>
       <time>2014-11-07T22:15:08Z</time>
      </trkpt>
      <trkpt lat="49.983501" lon="3.906821">
       <ele>218.46</ele>
       <time>2014-11-07T22:15:12Z</time>
      </trkpt>
      <trkpt lat="49.983684" lon="3.906574">
       <ele>219.49</ele>
       <time>2014-11-07T22:15:17Z</time>
      </trkpt>
      <trkpt lat="49.984577" lon="3.905847">
       <ele>223.45</ele>
       <time>2014-11-07T22:15:38Z</time>
      </trkpt>
      <trkpt lat="49.985363" lon="3.905246">
       <ele>223.17</ele>
       <time>2014-11-07T22:15:56Z</time>
      </trkpt>
      <trkpt lat="49.985988" lon="3.904464">
       <ele>221.14</ele>
       <time>2014-11-07T22:16:13Z</time>
      </trkpt>
      <trkpt lat="49.986160" lon="3.904191">
       <ele>220.1</ele>
       <time>2014-11-07T22:16:18Z</time>
      </trkpt>
      <trkpt lat="49.986812" lon="3.902673">
       <ele>219</ele>
       <time>2014-11-07T22:16:42Z</time>
      </trkpt>
      <trkpt lat="49.986961" lon="3.902436">
       <ele>218.98</ele>
       <time>2014-11-07T22:16:46Z</time>
      </trkpt>
      <trkpt lat="49.987621" lon="3.901710">
       <ele>220.08</ele>
       <time>2014-11-07T22:17:03Z</time>
      </trkpt>
      <trkpt lat="49.988376" lon="3.900820">
       <ele>221</ele>
       <time>2014-11-07T22:17:23Z</time>
      </trkpt>
      <trkpt lat="49.989315" lon="3.899343">
       <ele>221.75</ele>
       <time>2014-11-07T22:17:50Z</time>
      </trkpt>
      <trkpt lat="49.990177" lon="3.897906">
       <ele>223.57</ele>
       <time>2014-11-07T22:18:17Z</time>
      </trkpt>
      <trkpt lat="49.991527" lon="3.895817">
       <ele>224.17</ele>
       <time>2014-11-07T22:18:56Z</time>
      </trkpt>
      <trkpt lat="49.992141" lon="3.894541">
       <ele>224.79</ele>
       <time>2014-11-07T22:19:17Z</time>
      </trkpt>
      <trkpt lat="49.992515" lon="3.893955">
       <ele>225</ele>
       <time>2014-11-07T22:19:28Z</time>
      </trkpt>
      <trkpt lat="49.992675" lon="3.893620">
       <ele>225</ele>
       <time>2014-11-07T22:19:34Z</time>
      </trkpt>
      <trkpt lat="49.993209" lon="3.892318">
       <ele>226.4</ele>
       <time>2014-11-07T22:19:55Z</time>
      </trkpt>
      <trkpt lat="49.993396" lon="3.891989">
       <ele>227.36</ele>
       <time>2014-11-07T22:20:00Z</time>
      </trkpt>
      <trkpt lat="49.994125" lon="3.891088">
       <ele>228.95</ele>
       <time>2014-11-07T22:20:20Z</time>
      </trkpt>
      <trkpt lat="49.994544" lon="3.890474">
       <ele>228.11</ele>
       <time>2014-11-07T22:20:32Z</time>
      </trkpt>
      <trkpt lat="49.994770" lon="3.889950">
       <ele>227.36</ele>
       <time>2014-11-07T22:20:40Z</time>
      </trkpt>
      <trkpt lat="49.995101" lon="3.889308">
       <ele>228.54</ele>
       <time>2014-11-07T22:20:51Z</time>
      </trkpt>
      <trkpt lat="49.995586" lon="3.888447">
       <ele>228.9</ele>
       <time>2014-11-07T22:21:06Z</time>
      </trkpt>
      <trkpt lat="49.996349" lon="3.887583">
       <ele>229.28</ele>
       <time>2014-11-07T22:21:26Z</time>
      </trkpt>
      <trkpt lat="49.996906" lon="3.887197">
       <ele>229.23</ele>
       <time>2014-11-07T22:21:38Z</time>
      </trkpt>
      <trkpt lat="49.997684" lon="3.886996">
       <ele>227.87</ele>
       <time>2014-11-07T22:21:55Z</time>
      </trkpt>
      <trkpt lat="49.998958" lon="3.886198">
       <ele>226.11</ele>
       <time>2014-11-07T22:22:23Z</time>
      </trkpt>
      <trkpt lat="49.999660" lon="3.885868">
       <ele>226.59</ele>
       <time>2014-11-07T22:22:39Z</time>
      </trkpt>
      <trkpt lat="50.000354" lon="3.885296">
       <ele>228.07</ele>
       <time>2014-11-07T22:22:55Z</time>
      </trkpt>
      <trkpt lat="50.000770" lon="3.884670">
       <ele>228.59</ele>
       <time>2014-11-07T22:23:07Z</time>
      </trkpt>
      <trkpt lat="50.001346" lon="3.884057">
       <ele>226.36</ele>
       <time>2014-11-07T22:23:21Z</time>
      </trkpt>
      <trkpt lat="50.003208" lon="3.882941">
       <ele>224.68</ele>
       <time>2014-11-07T22:24:03Z</time>
      </trkpt>
      <trkpt lat="50.003807" lon="3.883008">
       <ele>224.04</ele>
       <time>2014-11-07T22:24:15Z</time>
      </trkpt>
      <trkpt lat="50.004474" lon="3.882981">
       <ele>224</ele>
       <time>2014-11-07T22:24:29Z</time>
      </trkpt>
      <trkpt lat="50.004493" lon="3.882963">
       <ele>223.99</ele>
       <time>2014-11-07T22:24:29Z</time>
      </trkpt>
      <trkpt lat="50.004825" lon="3.882673">
       <ele>223.54</ele>
       <time>2014-11-07T22:24:37Z</time>
      </trkpt>
      <trkpt lat="50.005321" lon="3.881716">
       <ele>223.75</ele>
       <time>2014-11-07T22:24:54Z</time>
      </trkpt>
      <trkpt lat="50.005764" lon="3.881145">
       <ele>228.02</ele>
       <time>2014-11-07T22:25:06Z</time>
      </trkpt>
      <trkpt lat="50.006168" lon="3.880918">
       <ele>228.77</ele>
       <time>2014-11-07T22:25:15Z</time>
      </trkpt>
      <trkpt lat="50.006687" lon="3.880985">
       <ele>227.42</ele>
       <time>2014-11-07T22:25:25Z</time>
      </trkpt>
      <trkpt lat="50.008140" lon="3.881678">
       <ele>224.47</ele>
       <time>2014-11-07T22:25:57Z</time>
      </trkpt>
      <trkpt lat="50.009826" lon="3.882328">
       <ele>224.26</ele>
       <time>2014-11-07T22:26:33Z</time>
      </trkpt>
      <trkpt lat="50.010459" lon="3.882529">
       <ele>225.03</ele>
       <time>2014-11-07T22:26:46Z</time>
      </trkpt>
      <trkpt lat="50.010971" lon="3.882288">
       <ele>224.66</ele>
       <time>2014-11-07T22:26:57Z</time>
      </trkpt>
      <trkpt lat="50.011619" lon="3.881423">
       <ele>224.34</ele>
       <time>2014-11-07T22:27:15Z</time>
      </trkpt>
      <trkpt lat="50.012142" lon="3.880587">
       <ele>224.12</ele>
       <time>2014-11-07T22:27:31Z</time>
      </trkpt>
      <trkpt lat="50.012569" lon="3.879642">
       <ele>224.08</ele>
       <time>2014-11-07T22:27:46Z</time>
      </trkpt>
      <trkpt lat="50.013031" lon="3.879096">
       <ele>224.52</ele>
       <time>2014-11-07T22:27:58Z</time>
      </trkpt>
      <trkpt lat="50.013595" lon="3.878962">
       <ele>224.75</ele>
       <time>2014-11-07T22:28:10Z</time>
      </trkpt>
      <trkpt lat="50.014305" lon="3.878603">
       <ele>224.1</ele>
       <time>2014-11-07T22:28:25Z</time>
      </trkpt>
      <trkpt lat="50.014877" lon="3.878072">
       <ele>223.15</ele>
       <time>2014-11-07T22:28:39Z</time>
      </trkpt>
      <trkpt lat="50.015552" lon="3.877408">
       <ele>222.26</ele>
       <time>2014-11-07T22:28:56Z</time>
      </trkpt>
      <trkpt lat="50.015853" lon="3.876940">
       <ele>221.28</ele>
       <time>2014-11-07T22:29:04Z</time>
      </trkpt>
      <trkpt lat="50.016201" lon="3.875823">
       <ele>220.13</ele>
       <time>2014-11-07T22:29:21Z</time>
      </trkpt>
      <trkpt lat="50.016357" lon="3.875533">
       <ele>220.1</ele>
       <time>2014-11-07T22:29:26Z</time>
      </trkpt>
      <trkpt lat="50.016971" lon="3.875092">
       <ele>219.24</ele>
       <time>2014-11-07T22:29:40Z</time>
      </trkpt>
      <trkpt lat="50.017391" lon="3.874588">
       <ele>218.82</ele>
       <time>2014-11-07T22:29:51Z</time>
      </trkpt>
      <trkpt lat="50.017742" lon="3.873950">
       <ele>218.71</ele>
       <time>2014-11-07T22:30:02Z</time>
      </trkpt>
      <trkpt lat="50.017971" lon="3.873482">
       <ele>218.43</ele>
       <time>2014-11-07T22:30:10Z</time>
      </trkpt>
      <trkpt lat="50.018047" lon="3.872673">
       <ele>218.89</ele>
       <time>2014-11-07T22:30:21Z</time>
      </trkpt>
      <trkpt lat="50.018081" lon="3.871912">
       <ele>220.1</ele>
       <time>2014-11-07T22:30:31Z</time>
      </trkpt>
      <trkpt lat="50.018493" lon="3.870624">
       <ele>221.47</ele>
       <time>2014-11-07T22:30:50Z</time>
      </trkpt>
      <trkpt lat="50.018867" lon="3.869226">
       <ele>221.31</ele>
       <time>2014-11-07T22:31:11Z</time>
      </trkpt>
      <trkpt lat="50.019271" lon="3.867218">
       <ele>222.58</ele>
       <time>2014-11-07T22:31:39Z</time>
      </trkpt>
      <trkpt lat="50.019638" lon="3.866753">
       <ele>221.75</ele>
       <time>2014-11-07T22:31:48Z</time>
      </trkpt>
      <trkpt lat="50.020118" lon="3.866208">
       <ele>220.18</ele>
       <time>2014-11-07T22:32:01Z</time>
      </trkpt>
      <trkpt lat="50.020870" lon="3.865875">
       <ele>218.86</ele>
       <time>2014-11-07T22:32:17Z</time>
      </trkpt>
      <trkpt lat="50.021320" lon="3.865288">
       <ele>218.21</ele>
       <time>2014-11-07T22:32:29Z</time>
      </trkpt>
      <trkpt lat="50.021793" lon="3.864372">
       <ele>216.53</ele>
       <time>2014-11-07T22:32:45Z</time>
      </trkpt>
      <trkpt lat="50.022354" lon="3.863533">
       <ele>215.44</ele>
       <time>2014-11-07T22:33:01Z</time>
      </trkpt>
      <trkpt lat="50.022895" lon="3.862987">
       <ele>213.36</ele>
       <time>2014-11-07T22:33:14Z</time>
      </trkpt>
      <trkpt lat="50.023551" lon="3.862657">
       <ele>211.11</ele>
       <time>2014-11-07T22:33:29Z</time>
      </trkpt>
      <trkpt lat="50.023944" lon="3.862404">
       <ele>210.14</ele>
       <time>2014-11-07T22:33:37Z</time>
      </trkpt>
      <trkpt lat="50.024929" lon="3.861699">
       <ele>210.17</ele>
       <time>2014-11-07T22:34:00Z</time>
      </trkpt>
      <trkpt lat="50.027320" lon="3.859065">
       <ele>209.34</ele>
       <time>2014-11-07T22:35:01Z</time>
      </trkpt>
      <trkpt lat="50.031303" lon="3.855473">
       <ele>209.49</ele>
       <time>2014-11-07T22:36:36Z</time>
      </trkpt>
      <trkpt lat="50.033626" lon="3.853343">
       <ele>212.65</ele>
       <time>2014-11-07T22:37:32Z</time>
      </trkpt>
      <trkpt lat="50.035926" lon="3.852160">
       <ele>215.36</ele>
       <time>2014-11-07T22:38:22Z</time>
      </trkpt>
      <trkpt lat="50.037387" lon="3.851643">
       <ele>214.99</ele>
       <time>2014-11-07T22:38:53Z</time>
      </trkpt>
      <trkpt lat="50.039241" lon="3.850738">
       <ele>214.91</ele>
       <time>2014-11-07T22:39:33Z</time>
      </trkpt>
      <trkpt lat="50.039634" lon="3.850657">
       <ele>214.44</ele>
       <time>2014-11-07T22:39:42Z</time>
      </trkpt>
      <trkpt lat="50.039951" lon="3.849863">
       <ele>214.22</ele>
       <time>2014-11-07T22:39:54Z</time>
      </trkpt>
      <trkpt lat="50.040267" lon="3.849354">
       <ele>214.28</ele>
       <time>2014-11-07T22:40:04Z</time>
      </trkpt>
      <trkpt lat="50.041770" lon="3.850039">
       <ele>214.87</ele>
       <time>2014-11-07T22:40:36Z</time>
      </trkpt>
      <trkpt lat="50.042041" lon="3.850033">
       <ele>214.9</ele>
       <time>2014-11-07T22:40:42Z</time>
      </trkpt>
      <trkpt lat="50.042060" lon="3.849981">
       <ele>215.02</ele>
       <time>2014-11-07T22:40:42Z</time>
      </trkpt>
      <trkpt lat="50.042350" lon="3.849616">
       <ele>215.46</ele>
       <time>2014-11-07T22:40:50Z</time>
      </trkpt>
      <trkpt lat="50.042781" lon="3.848901">
       <ele>214.88</ele>
       <time>2014-11-07T22:41:03Z</time>
      </trkpt>
      <trkpt lat="50.043113" lon="3.848206">
       <ele>214.3</ele>
       <time>2014-11-07T22:41:15Z</time>
      </trkpt>
      <trkpt lat="50.043827" lon="3.846441">
       <ele>213.62</ele>
       <time>2014-11-07T22:41:43Z</time>
      </trkpt>
      <trkpt lat="50.043972" lon="3.846190">
       <ele>213.29</ele>
       <time>2014-11-07T22:41:47Z</time>
      </trkpt>
      <trkpt lat="50.044147" lon="3.845983">
       <ele>213.16</ele>
       <time>2014-11-07T22:41:52Z</time>
      </trkpt>
      <trkpt lat="50.044551" lon="3.845576">
       <ele>212.21</ele>
       <time>2014-11-07T22:42:02Z</time>
      </trkpt>
      <trkpt lat="50.044708" lon="3.845458">
       <ele>212.03</ele>
       <time>2014-11-07T22:42:05Z</time>
      </trkpt>
      <trkpt lat="50.045249" lon="3.845272">
       <ele>211.9</ele>
       <time>2014-11-07T22:42:17Z</time>
      </trkpt>
      <trkpt lat="50.045566" lon="3.845252">
       <ele>211.79</ele>
       <time>2014-11-07T22:42:23Z</time>
      </trkpt>
      <trkpt lat="50.045951" lon="3.845108">
       <ele>211.5</ele>
       <time>2014-11-07T22:42:31Z</time>
      </trkpt>
      <trkpt lat="50.046264" lon="3.844865">
       <ele>210.29</ele>
       <time>2014-11-07T22:42:39Z</time>
      </trkpt>
      <trkpt lat="50.046493" lon="3.844589">
       <ele>209.13</ele>
       <time>2014-11-07T22:42:45Z</time>
      </trkpt>
      <trkpt lat="50.046722" lon="3.844193">
       <ele>208.1</ele>
       <time>2014-11-07T22:42:52Z</time>
      </trkpt>
      <trkpt lat="50.046844" lon="3.843914">
       <ele>208.39</ele>
       <time>2014-11-07T22:42:56Z</time>
      </trkpt>
      <trkpt lat="50.046958" lon="3.843533">
       <ele>208.58</ele>
       <time>2014-11-07T22:43:02Z</time>
      </trkpt>
      <trkpt lat="50.047073" lon="3.842832">
       <ele>209.11</ele>
       <time>2014-11-07T22:43:12Z</time>
      </trkpt>
      <trkpt lat="50.047199" lon="3.841674">
       <ele>209</ele>
       <time>2014-11-07T22:43:27Z</time>
      </trkpt>
      <trkpt lat="50.047473" lon="3.838891">
       <ele>208.21</ele>
       <time>2014-11-07T22:44:05Z</time>
      </trkpt>
      <trkpt lat="50.047523" lon="3.837857">
       <ele>205.91</ele>
       <time>2014-11-07T22:44:18Z</time>
      </trkpt>
      <trkpt lat="50.047557" lon="3.837620">
       <ele>205.43</ele>
       <time>2014-11-07T22:44:22Z</time>
      </trkpt>
      <trkpt lat="50.047676" lon="3.837177">
       <ele>205.12</ele>
       <time>2014-11-07T22:44:28Z</time>
      </trkpt>
      <trkpt lat="50.056812" lon="3.814017">
       <ele>199.06</ele>
       <time>2014-11-07T22:50:30Z</time>
      </trkpt>
      <trkpt lat="50.056835" lon="3.813905">
       <ele>199.02</ele>
       <time>2014-11-07T22:50:32Z</time>
      </trkpt>
      <trkpt lat="50.056823" lon="3.813621">
       <ele>198.78</ele>
       <time>2014-11-07T22:50:35Z</time>
      </trkpt>
      <trkpt lat="50.056388" lon="3.811522">
       <ele>196.28</ele>
       <time>2014-11-07T22:51:05Z</time>
      </trkpt>
      <trkpt lat="50.056373" lon="3.811355">
       <ele>196.19</ele>
       <time>2014-11-07T22:51:07Z</time>
      </trkpt>
      <trkpt lat="50.057308" lon="3.807528">
       <ele>199.31</ele>
       <time>2014-11-07T22:52:01Z</time>
      </trkpt>
      <trkpt lat="50.058307" lon="3.801882">
       <ele>193.67</ele>
       <time>2014-11-07T22:53:19Z</time>
      </trkpt>
      <trkpt lat="50.058467" lon="3.801223">
       <ele>192.17</ele>
       <time>2014-11-07T22:53:29Z</time>
      </trkpt>
      <trkpt lat="50.058925" lon="3.799782">
       <ele>190.26</ele>
       <time>2014-11-07T22:53:50Z</time>
      </trkpt>
      <trkpt lat="50.060466" lon="3.796719">
       <ele>188.22</ele>
       <time>2014-11-07T22:54:42Z</time>
      </trkpt>
      <trkpt lat="50.062011" lon="3.793853">
       <ele>187.93</ele>
       <time>2014-11-07T22:55:32Z</time>
      </trkpt>
      <trkpt lat="50.062366" lon="3.792977">
       <ele>186.92</ele>
       <time>2014-11-07T22:55:46Z</time>
      </trkpt>
      <trkpt lat="50.062786" lon="3.791837">
       <ele>185.69</ele>
       <time>2014-11-07T22:56:03Z</time>
      </trkpt>
      <trkpt lat="50.063034" lon="3.791254">
       <ele>185.15</ele>
       <time>2014-11-07T22:56:12Z</time>
      </trkpt>
      <trkpt lat="50.063194" lon="3.790996">
       <ele>185.03</ele>
       <time>2014-11-07T22:56:17Z</time>
      </trkpt>
      <trkpt lat="50.064529" lon="3.789462">
       <ele>186.31</ele>
       <time>2014-11-07T22:56:52Z</time>
      </trkpt>
      <trkpt lat="50.064731" lon="3.789098">
       <ele>186.9</ele>
       <time>2014-11-07T22:56:58Z</time>
      </trkpt>
      <trkpt lat="50.064815" lon="3.788860">
       <ele>186.68</ele>
       <time>2014-11-07T22:57:02Z</time>
      </trkpt>
      <trkpt lat="50.065216" lon="3.787245">
       <ele>185.3</ele>
       <time>2014-11-07T22:57:25Z</time>
      </trkpt>
      <trkpt lat="50.065673" lon="3.785706">
       <ele>185.9</ele>
       <time>2014-11-07T22:57:47Z</time>
      </trkpt>
      <trkpt lat="50.066299" lon="3.784239">
       <ele>183.33</ele>
       <time>2014-11-07T22:58:11Z</time>
      </trkpt>
      <trkpt lat="50.067188" lon="3.782511">
       <ele>180.92</ele>
       <time>2014-11-07T22:58:40Z</time>
      </trkpt>
      <trkpt lat="50.067539" lon="3.782138">
       <ele>180.4</ele>
       <time>2014-11-07T22:58:49Z</time>
      </trkpt>
      <trkpt lat="50.068210" lon="3.781470">
       <ele>180.12</ele>
       <time>2014-11-07T22:59:05Z</time>
      </trkpt>
      <trkpt lat="50.070068" lon="3.779552">
       <ele>180.62</ele>
       <time>2014-11-07T22:59:52Z</time>
      </trkpt>
      <trkpt lat="50.071926" lon="3.778238">
       <ele>179.38</ele>
       <time>2014-11-07T23:00:34Z</time>
      </trkpt>
      <trkpt lat="50.072586" lon="3.777822">
       <ele>178.21</ele>
       <time>2014-11-07T23:00:49Z</time>
      </trkpt>
      <trkpt lat="50.073127" lon="3.777635">
       <ele>180.85</ele>
       <time>2014-11-07T23:01:00Z</time>
      </trkpt>
      <trkpt lat="50.073471" lon="3.777295">
       <ele>182.38</ele>
       <time>2014-11-07T23:01:09Z</time>
      </trkpt>
      <trkpt lat="50.073883" lon="3.776803">
       <ele>184.18</ele>
       <time>2014-11-07T23:01:19Z</time>
      </trkpt>
      <trkpt lat="50.074417" lon="3.776288">
       <ele>185.39</ele>
       <time>2014-11-07T23:01:32Z</time>
      </trkpt>
      <trkpt lat="50.074722" lon="3.775918">
       <ele>184.87</ele>
       <time>2014-11-07T23:01:40Z</time>
      </trkpt>
      <trkpt lat="50.075798" lon="3.774466">
       <ele>181.62</ele>
       <time>2014-11-07T23:02:10Z</time>
      </trkpt>
      <trkpt lat="50.076171" lon="3.774106">
       <ele>181.7</ele>
       <time>2014-11-07T23:02:19Z</time>
      </trkpt>
      <trkpt lat="50.076560" lon="3.773617">
       <ele>182</ele>
       <time>2014-11-07T23:02:29Z</time>
      </trkpt>
      <trkpt lat="50.076881" lon="3.773194">
       <ele>182.31</ele>
       <time>2014-11-07T23:02:38Z</time>
      </trkpt>
      <trkpt lat="50.077144" lon="3.772756">
       <ele>182.06</ele>
       <time>2014-11-07T23:02:46Z</time>
      </trkpt>
      <trkpt lat="50.078063" lon="3.770910">
       <ele>182.38</ele>
       <time>2014-11-07T23:03:17Z</time>
      </trkpt>
      <trkpt lat="50.078201" lon="3.770596">
       <ele>182.35</ele>
       <time>2014-11-07T23:03:22Z</time>
      </trkpt>
      <trkpt lat="50.078277" lon="3.770322">
       <ele>182.21</ele>
       <time>2014-11-07T23:03:26Z</time>
      </trkpt>
      <trkpt lat="50.078433" lon="3.769295">
       <ele>180.55</ele>
       <time>2014-11-07T23:03:40Z</time>
      </trkpt>
      <trkpt lat="50.078544" lon="3.768728">
       <ele>178.79</ele>
       <time>2014-11-07T23:03:48Z</time>
      </trkpt>
      <trkpt lat="50.078647" lon="3.768619">
       <ele>178.54</ele>
       <time>2014-11-07T23:03:51Z</time>
      </trkpt>
      <trkpt lat="50.078651" lon="3.768558">
       <ele>178.29</ele>
       <time>2014-11-07T23:03:52Z</time>
      </trkpt>
      <trkpt lat="50.078632" lon="3.768512">
       <ele>178.08</ele>
       <time>2014-11-07T23:03:52Z</time>
      </trkpt>
      <trkpt lat="50.078613" lon="3.768357">
       <ele>177.43</ele>
       <time>2014-11-07T23:03:54Z</time>
      </trkpt>
      <trkpt lat="50.078655" lon="3.768219">
       <ele>177.16</ele>
       <time>2014-11-07T23:03:56Z</time>
      </trkpt>
      <trkpt lat="50.079315" lon="3.767277">
       <ele>177.01</ele>
       <time>2014-11-07T23:04:15Z</time>
      </trkpt>
      <trkpt lat="50.080307" lon="3.766201">
       <ele>178.1</ele>
       <time>2014-11-07T23:04:40Z</time>
      </trkpt>
      <trkpt lat="50.080898" lon="3.765352">
       <ele>178</ele>
       <time>2014-11-07T23:04:57Z</time>
      </trkpt>
      <trkpt lat="50.081531" lon="3.764791">
       <ele>177.42</ele>
       <time>2014-11-07T23:05:12Z</time>
      </trkpt>
      <trkpt lat="50.082035" lon="3.764389">
       <ele>175.78</ele>
       <time>2014-11-07T23:05:24Z</time>
      </trkpt>
      <trkpt lat="50.082523" lon="3.763767">
       <ele>174.63</ele>
       <time>2014-11-07T23:05:37Z</time>
      </trkpt>
      <trkpt lat="50.082889" lon="3.763180">
       <ele>175.49</ele>
       <time>2014-11-07T23:05:48Z</time>
      </trkpt>
      <trkpt lat="50.084217" lon="3.761307">
       <ele>176.22</ele>
       <time>2014-11-07T23:06:25Z</time>
      </trkpt>
      <trkpt lat="50.084514" lon="3.760802">
       <ele>177.21</ele>
       <time>2014-11-07T23:06:34Z</time>
      </trkpt>
      <trkpt lat="50.084735" lon="3.760369">
       <ele>177.7</ele>
       <time>2014-11-07T23:06:41Z</time>
      </trkpt>
      <trkpt lat="50.084842" lon="3.760025">
       <ele>178.07</ele>
       <time>2014-11-07T23:06:46Z</time>
      </trkpt>
      <trkpt lat="50.085964" lon="3.754930">
       <ele>172.61</ele>
       <time>2014-11-07T23:07:58Z</time>
      </trkpt>
      <trkpt lat="50.086277" lon="3.753628">
       <ele>172.04</ele>
       <time>2014-11-07T23:08:16Z</time>
      </trkpt>
      <trkpt lat="50.086811" lon="3.752079">
       <ele>174.28</ele>
       <time>2014-11-07T23:08:40Z</time>
      </trkpt>
      <trkpt lat="50.088424" lon="3.747570">
       <ele>176.35</ele>
       <time>2014-11-07T23:09:48Z</time>
      </trkpt>
      <trkpt lat="50.088638" lon="3.747118">
       <ele>175.57</ele>
       <time>2014-11-07T23:09:56Z</time>
      </trkpt>
      <trkpt lat="50.088813" lon="3.746845">
       <ele>174.88</ele>
       <time>2014-11-07T23:10:01Z</time>
      </trkpt>
      <trkpt lat="50.088996" lon="3.746633">
       <ele>174.16</ele>
       <time>2014-11-07T23:10:06Z</time>
      </trkpt>
      <trkpt lat="50.091247" lon="3.744251">
       <ele>169.71</ele>
       <time>2014-11-07T23:11:02Z</time>
      </trkpt>
      <trkpt lat="50.091426" lon="3.744038">
       <ele>168.98</ele>
       <time>2014-11-07T23:11:07Z</time>
      </trkpt>
      <trkpt lat="50.092025" lon="3.743077">
       <ele>164.61</ele>
       <time>2014-11-07T23:11:25Z</time>
      </trkpt>
      <trkpt lat="50.093074" lon="3.741318">
       <ele>160.07</ele>
       <time>2014-11-07T23:11:57Z</time>
      </trkpt>
      <trkpt lat="50.093296" lon="3.740879">
       <ele>160.87</ele>
       <time>2014-11-07T23:12:04Z</time>
      </trkpt>
      <trkpt lat="50.094360" lon="3.738574">
       <ele>161.65</ele>
       <time>2014-11-07T23:12:42Z</time>
      </trkpt>
      <trkpt lat="50.094757" lon="3.737900">
       <ele>162.55</ele>
       <time>2014-11-07T23:12:54Z</time>
      </trkpt>
      <trkpt lat="50.094985" lon="3.737445">
       <ele>162.57</ele>
       <time>2014-11-07T23:13:02Z</time>
      </trkpt>
      <trkpt lat="50.095256" lon="3.736597">
       <ele>159.96</ele>
       <time>2014-11-07T23:13:14Z</time>
      </trkpt>
      <trkpt lat="50.095523" lon="3.735893">
       <ele>159.96</ele>
       <time>2014-11-07T23:13:25Z</time>
      </trkpt>
      <trkpt lat="50.095932" lon="3.735301">
       <ele>160.44</ele>
       <time>2014-11-07T23:13:37Z</time>
      </trkpt>
      <trkpt lat="50.096988" lon="3.734040">
       <ele>159.74</ele>
       <time>2014-11-07T23:14:04Z</time>
      </trkpt>
      <trkpt lat="50.097621" lon="3.733160">
       <ele>158.29</ele>
       <time>2014-11-07T23:14:22Z</time>
      </trkpt>
      <trkpt lat="50.098213" lon="3.731935">
       <ele>160.7</ele>
       <time>2014-11-07T23:14:42Z</time>
      </trkpt>
      <trkpt lat="50.098529" lon="3.731102">
       <ele>160</ele>
       <time>2014-11-07T23:14:55Z</time>
      </trkpt>
      <trkpt lat="50.099048" lon="3.729809">
       <ele>160.43</ele>
       <time>2014-11-07T23:15:15Z</time>
      </trkpt>
      <trkpt lat="50.099380" lon="3.729125">
       <ele>159.96</ele>
       <time>2014-11-07T23:15:27Z</time>
      </trkpt>
      <trkpt lat="50.100376" lon="3.727405">
       <ele>162.55</ele>
       <time>2014-11-07T23:15:58Z</time>
      </trkpt>
      <trkpt lat="50.100841" lon="3.726871">
       <ele>162.53</ele>
       <time>2014-11-07T23:16:10Z</time>
      </trkpt>
      <trkpt lat="50.101707" lon="3.726015">
       <ele>165.4</ele>
       <time>2014-11-07T23:16:31Z</time>
      </trkpt>
      <trkpt lat="50.101963" lon="3.725449">
       <ele>165.5</ele>
       <time>2014-11-07T23:16:40Z</time>
      </trkpt>
      <trkpt lat="50.102222" lon="3.724616">
       <ele>164.9</ele>
       <time>2014-11-07T23:16:52Z</time>
      </trkpt>
      <trkpt lat="50.103034" lon="3.721677">
       <ele>163.58</ele>
       <time>2014-11-07T23:17:35Z</time>
      </trkpt>
      <trkpt lat="50.103366" lon="3.720051">
       <ele>164.16</ele>
       <time>2014-11-07T23:17:58Z</time>
      </trkpt>
      <trkpt lat="50.103424" lon="3.719870">
       <ele>164.25</ele>
       <time>2014-11-07T23:18:00Z</time>
      </trkpt>
      <trkpt lat="50.103458" lon="3.719795">
       <ele>164.28</ele>
       <time>2014-11-07T23:18:02Z</time>
      </trkpt>
      <trkpt lat="50.103565" lon="3.719686">
       <ele>164.53</ele>
       <time>2014-11-07T23:18:04Z</time>
      </trkpt>
      <trkpt lat="50.103679" lon="3.719654">
       <ele>164.9</ele>
       <time>2014-11-07T23:18:07Z</time>
      </trkpt>
      <trkpt lat="50.104160" lon="3.719742">
       <ele>167.05</ele>
       <time>2014-11-07T23:18:17Z</time>
      </trkpt>
      <trkpt lat="50.104259" lon="3.719732">
       <ele>167.22</ele>
       <time>2014-11-07T23:18:19Z</time>
      </trkpt>
      <trkpt lat="50.104518" lon="3.719453">
       <ele>167.01</ele>
       <time>2014-11-07T23:18:25Z</time>
      </trkpt>
      <trkpt lat="50.104625" lon="3.719300">
       <ele>166.96</ele>
       <time>2014-11-07T23:18:28Z</time>
      </trkpt>
      <trkpt lat="50.104698" lon="3.719105">
       <ele>166.87</ele>
       <time>2014-11-07T23:18:31Z</time>
      </trkpt>
      <trkpt lat="50.105426" lon="3.716659">
       <ele>169.53</ele>
       <time>2014-11-07T23:19:07Z</time>
      </trkpt>
      <trkpt lat="50.105548" lon="3.716207">
       <ele>169.61</ele>
       <time>2014-11-07T23:19:14Z</time>
      </trkpt>
      <trkpt lat="50.106174" lon="3.712965">
       <ele>169.75</ele>
       <time>2014-11-07T23:19:59Z</time>
      </trkpt>
      <trkpt lat="50.106315" lon="3.712559">
       <ele>168.76</ele>
       <time>2014-11-07T23:20:05Z</time>
      </trkpt>
      <trkpt lat="50.106407" lon="3.712378">
       <ele>168.5</ele>
       <time>2014-11-07T23:20:08Z</time>
      </trkpt>
      <trkpt lat="50.106536" lon="3.712253">
       <ele>168.5</ele>
       <time>2014-11-07T23:20:11Z</time>
      </trkpt>
      <trkpt lat="50.106697" lon="3.712131">
       <ele>168.59</ele>
       <time>2014-11-07T23:20:15Z</time>
      </trkpt>
      <trkpt lat="50.107925" lon="3.711698">
       <ele>167.49</ele>
       <time>2014-11-07T23:20:41Z</time>
      </trkpt>
      <trkpt lat="50.108295" lon="3.711621">
       <ele>166.19</ele>
       <time>2014-11-07T23:20:49Z</time>
      </trkpt>
      <trkpt lat="50.109878" lon="3.711499">
       <ele>160.81</ele>
       <time>2014-11-07T23:21:22Z</time>
      </trkpt>
      <trkpt lat="50.110046" lon="3.711477">
       <ele>160.12</ele>
       <time>2014-11-07T23:21:25Z</time>
      </trkpt>
      <trkpt lat="50.110176" lon="3.711415">
       <ele>159.88</ele>
       <time>2014-11-07T23:21:28Z</time>
      </trkpt>
      <trkpt lat="50.110385" lon="3.711205">
       <ele>159.63</ele>
       <time>2014-11-07T23:21:33Z</time>
      </trkpt>
      <trkpt lat="50.110801" lon="3.710603">
       <ele>159.08</ele>
       <time>2014-11-07T23:21:45Z</time>
      </trkpt>
      <trkpt lat="50.110965" lon="3.710453">
       <ele>158.68</ele>
       <time>2014-11-07T23:21:49Z</time>
      </trkpt>
      <trkpt lat="50.111160" lon="3.710330">
       <ele>158.22</ele>
       <time>2014-11-07T23:21:53Z</time>
      </trkpt>
      <trkpt lat="50.111904" lon="3.710216">
       <ele>155.79</ele>
       <time>2014-11-07T23:22:09Z</time>
      </trkpt>
      <trkpt lat="50.112167" lon="3.710159">
       <ele>154.48</ele>
       <time>2014-11-07T23:22:14Z</time>
      </trkpt>
      <trkpt lat="50.112342" lon="3.710041">
       <ele>153.71</ele>
       <time>2014-11-07T23:22:18Z</time>
      </trkpt>
      <trkpt lat="50.112873" lon="3.709589">
       <ele>150.54</ele>
       <time>2014-11-07T23:22:31Z</time>
      </trkpt>
      <trkpt lat="50.113231" lon="3.709232">
       <ele>147.8</ele>
       <time>2014-11-07T23:22:39Z</time>
      </trkpt>
      <trkpt lat="50.113677" lon="3.708657">
       <ele>146.17</ele>
       <time>2014-11-07T23:22:51Z</time>
      </trkpt>
      <trkpt lat="50.113788" lon="3.708539">
       <ele>145.91</ele>
       <time>2014-11-07T23:22:54Z</time>
      </trkpt>
      <trkpt lat="50.113861" lon="3.708488">
       <ele>145.73</ele>
       <time>2014-11-07T23:22:56Z</time>
      </trkpt>
      <trkpt lat="50.114189" lon="3.708357">
       <ele>145</ele>
       <time>2014-11-07T23:23:03Z</time>
      </trkpt>
      <trkpt lat="50.115009" lon="3.708086">
       <ele>144.68</ele>
       <time>2014-11-07T23:23:20Z</time>
      </trkpt>
      <trkpt lat="50.115760" lon="3.707839">
       <ele>142.75</ele>
       <time>2014-11-07T23:23:36Z</time>
      </trkpt>
      <trkpt lat="50.115970" lon="3.707703">
       <ele>142.59</ele>
       <time>2014-11-07T23:23:41Z</time>
      </trkpt>
      <trkpt lat="50.116069" lon="3.707607">
       <ele>142.59</ele>
       <time>2014-11-07T23:23:43Z</time>
      </trkpt>
      <trkpt lat="50.116207" lon="3.707370">
       <ele>142.55</ele>
       <time>2014-11-07T23:23:48Z</time>
      </trkpt>
      <trkpt lat="50.116779" lon="3.705789">
       <ele>141.94</ele>
       <time>2014-11-07T23:24:12Z</time>
      </trkpt>
      <trkpt lat="50.116897" lon="3.705534">
       <ele>141.54</ele>
       <time>2014-11-07T23:24:16Z</time>
      </trkpt>
      <trkpt lat="50.116962" lon="3.705465">
       <ele>141.4</ele>
       <time>2014-11-07T23:24:17Z</time>
      </trkpt>
      <trkpt lat="50.117050" lon="3.705424">
       <ele>141.28</ele>
       <time>2014-11-07T23:24:19Z</time>
      </trkpt>
      <trkpt lat="50.118503" lon="3.704981">
       <ele>138.81</ele>
       <time>2014-11-07T23:24:50Z</time>
      </trkpt>
      <trkpt lat="50.118431" lon="3.704622">
       <ele>139.23</ele>
       <time>2014-11-07T23:24:55Z</time>
      </trkpt>
      <trkpt lat="50.118415" lon="3.704399">
       <ele>139.48</ele>
       <time>2014-11-07T23:24:58Z</time>
      </trkpt>
      <trkpt lat="50.118431" lon="3.704241">
       <ele>139.58</ele>
       <time>2014-11-07T23:25:00Z</time>
      </trkpt>
      <trkpt lat="50.119541" lon="3.697904">
       <ele>142.38</ele>
       <time>2014-11-07T23:26:28Z</time>
      </trkpt>
      <trkpt lat="50.119693" lon="3.697546">
       <ele>142.08</ele>
       <time>2014-11-07T23:26:33Z</time>
      </trkpt>
      <trkpt lat="50.120536" lon="3.696285">
       <ele>141.84</ele>
       <time>2014-11-07T23:26:57Z</time>
      </trkpt>
      <trkpt lat="50.120868" lon="3.695852">
       <ele>141.96</ele>
       <time>2014-11-07T23:27:06Z</time>
      </trkpt>
      <trkpt lat="50.122005" lon="3.694561">
       <ele>139.41</ele>
       <time>2014-11-07T23:27:36Z</time>
      </trkpt>
      <trkpt lat="50.123607" lon="3.692065">
       <ele>139.98</ele>
       <time>2014-11-07T23:28:23Z</time>
      </trkpt>
      <trkpt lat="50.123718" lon="3.691842">
       <ele>139.38</ele>
       <time>2014-11-07T23:28:26Z</time>
      </trkpt>
      <trkpt lat="50.123798" lon="3.691560">
       <ele>139.03</ele>
       <time>2014-11-07T23:28:30Z</time>
      </trkpt>
      <trkpt lat="50.123779" lon="3.691468">
       <ele>139.18</ele>
       <time>2014-11-07T23:28:32Z</time>
      </trkpt>
      <trkpt lat="50.123779" lon="3.691350">
       <ele>139.34</ele>
       <time>2014-11-07T23:28:33Z</time>
      </trkpt>
      <trkpt lat="50.124267" lon="3.690330">
       <ele>140.58</ele>
       <time>2014-11-07T23:28:50Z</time>
      </trkpt>
      <trkpt lat="50.124534" lon="3.689836">
       <ele>140.06</ele>
       <time>2014-11-07T23:28:59Z</time>
      </trkpt>
      <trkpt lat="50.124710" lon="3.689599">
       <ele>139.22</ele>
       <time>2014-11-07T23:29:04Z</time>
      </trkpt>
      <trkpt lat="50.124885" lon="3.689321">
       <ele>138.4</ele>
       <time>2014-11-07T23:29:09Z</time>
      </trkpt>
      <trkpt lat="50.124931" lon="3.689219">
       <ele>138.13</ele>
       <time>2014-11-07T23:29:10Z</time>
      </trkpt>
      <trkpt lat="50.125000" lon="3.689126">
       <ele>138.05</ele>
       <time>2014-11-07T23:29:12Z</time>
      </trkpt>
      <trkpt lat="50.125431" lon="3.688728">
       <ele>137.74</ele>
       <time>2014-11-07T23:29:23Z</time>
      </trkpt>
      <trkpt lat="50.126201" lon="3.688266">
       <ele>136.04</ele>
       <time>2014-11-07T23:29:40Z</time>
      </trkpt>
      <trkpt lat="50.126384" lon="3.688215">
       <ele>135.53</ele>
       <time>2014-11-07T23:29:44Z</time>
      </trkpt>
      <trkpt lat="50.126537" lon="3.688118">
       <ele>135.05</ele>
       <time>2014-11-07T23:29:47Z</time>
      </trkpt>
      <trkpt lat="50.127338" lon="3.687128">
       <ele>135.61</ele>
       <time>2014-11-07T23:30:08Z</time>
      </trkpt>
      <trkpt lat="50.127944" lon="3.686285">
       <ele>137.53</ele>
       <time>2014-11-07T23:30:25Z</time>
      </trkpt>
      <trkpt lat="50.128028" lon="3.686141">
       <ele>137.9</ele>
       <time>2014-11-07T23:30:28Z</time>
      </trkpt>
      <trkpt lat="50.128219" lon="3.685404">
       <ele>139.1</ele>
       <time>2014-11-07T23:30:38Z</time>
      </trkpt>
      <trkpt lat="50.128326" lon="3.684818">
       <ele>139.75</ele>
       <time>2014-11-07T23:30:46Z</time>
      </trkpt>
      <trkpt lat="50.128414" lon="3.684446">
       <ele>139.43</ele>
       <time>2014-11-07T23:30:52Z</time>
      </trkpt>
      <trkpt lat="50.128524" lon="3.684098">
       <ele>139.19</ele>
       <time>2014-11-07T23:30:57Z</time>
      </trkpt>
      <trkpt lat="50.128650" lon="3.683815">
       <ele>139.28</ele>
       <time>2014-11-07T23:31:01Z</time>
      </trkpt>
      <trkpt lat="50.128791" lon="3.683593">
       <ele>139.62</ele>
       <time>2014-11-07T23:31:05Z</time>
      </trkpt>
      <trkpt lat="50.129032" lon="3.683341">
       <ele>140.51</ele>
       <time>2014-11-07T23:31:12Z</time>
      </trkpt>
      <trkpt lat="50.129177" lon="3.683248">
       <ele>141.15</ele>
       <time>2014-11-07T23:31:15Z</time>
      </trkpt>
      <trkpt lat="50.129325" lon="3.683185">
       <ele>141.94</ele>
       <time>2014-11-07T23:31:18Z</time>
      </trkpt>
      <trkpt lat="50.129573" lon="3.683130">
       <ele>143.2</ele>
       <time>2014-11-07T23:31:23Z</time>
      </trkpt>
      <trkpt lat="50.129638" lon="3.683067">
       <ele>143.59</ele>
       <time>2014-11-07T23:31:25Z</time>
      </trkpt>
      <trkpt lat="50.129661" lon="3.683002">
       <ele>143.77</ele>
       <time>2014-11-07T23:31:26Z</time>
      </trkpt>
      <trkpt lat="50.129688" lon="3.683015">
       <ele>143.89</ele>
       <time>2014-11-07T23:31:26Z</time>
      </trkpt>
      <trkpt lat="50.129726" lon="3.682991">
       <ele>144.1</ele>
       <time>2014-11-07T23:31:27Z</time>
      </trkpt>
      <trkpt lat="50.129737" lon="3.682965">
       <ele>144.18</ele>
       <time>2014-11-07T23:31:28Z</time>
      </trkpt>
      <trkpt lat="50.129726" lon="3.682872">
       <ele>144.24</ele>
       <time>2014-11-07T23:31:29Z</time>
      </trkpt>
      <trkpt lat="50.129772" lon="3.682703">
       <ele>144.66</ele>
       <time>2014-11-07T23:31:31Z</time>
      </trkpt>
      <trkpt lat="50.129997" lon="3.681216">
       <ele>147.98</ele>
       <time>2014-11-07T23:31:52Z</time>
      </trkpt>
      <trkpt lat="50.130229" lon="3.679789">
       <ele>149.43</ele>
       <time>2014-11-07T23:32:11Z</time>
      </trkpt>
      <trkpt lat="50.130329" lon="3.679274">
       <ele>150.79</ele>
       <time>2014-11-07T23:32:18Z</time>
      </trkpt>
      <trkpt lat="50.130664" lon="3.677860">
       <ele>152.65</ele>
       <time>2014-11-07T23:32:38Z</time>
      </trkpt>
      <trkpt lat="50.131309" lon="3.675266">
       <ele>156.64</ele>
       <time>2014-11-07T23:33:15Z</time>
      </trkpt>
      <trkpt lat="50.131538" lon="3.674560">
       <ele>157.61</ele>
       <time>2014-11-07T23:33:26Z</time>
      </trkpt>
      <trkpt lat="50.132190" lon="3.672830">
       <ele>155.88</ele>
       <time>2014-11-07T23:33:52Z</time>
      </trkpt>
      <trkpt lat="50.132812" lon="3.671267">
       <ele>158.35</ele>
       <time>2014-11-07T23:34:17Z</time>
      </trkpt>
      <trkpt lat="50.133159" lon="3.670175">
       <ele>160.42</ele>
       <time>2014-11-07T23:34:33Z</time>
      </trkpt>
      <trkpt lat="50.133258" lon="3.669924">
       <ele>161.06</ele>
       <time>2014-11-07T23:34:37Z</time>
      </trkpt>
      <trkpt lat="50.133430" lon="3.669569">
       <ele>162.26</ele>
       <time>2014-11-07T23:34:43Z</time>
      </trkpt>
      <trkpt lat="50.133598" lon="3.669342">
       <ele>163.03</ele>
       <time>2014-11-07T23:34:48Z</time>
      </trkpt>
      <trkpt lat="50.134349" lon="3.668488">
       <ele>163.82</ele>
       <time>2014-11-07T23:35:07Z</time>
      </trkpt>
      <trkpt lat="50.134654" lon="3.668092">
       <ele>164.16</ele>
       <time>2014-11-07T23:35:15Z</time>
      </trkpt>
      <trkpt lat="50.134769" lon="3.667928">
       <ele>164.6</ele>
       <time>2014-11-07T23:35:18Z</time>
      </trkpt>
      <trkpt lat="50.134937" lon="3.667603">
       <ele>165.64</ele>
       <time>2014-11-07T23:35:24Z</time>
      </trkpt>
      <trkpt lat="50.136116" lon="3.664199">
       <ele>162.42</ele>
       <time>2014-11-07T23:36:15Z</time>
      </trkpt>
      <trkpt lat="50.137084" lon="3.661704">
       <ele>162.5</ele>
       <time>2014-11-07T23:36:54Z</time>
      </trkpt>
      <trkpt lat="50.137199" lon="3.661349">
       <ele>163.02</ele>
       <time>2014-11-07T23:36:59Z</time>
      </trkpt>
      <trkpt lat="50.137435" lon="3.660135">
       <ele>164.76</ele>
       <time>2014-11-07T23:37:16Z</time>
      </trkpt>
      <trkpt lat="50.137474" lon="3.659878">
       <ele>165.25</ele>
       <time>2014-11-07T23:37:20Z</time>
      </trkpt>
      <trkpt lat="50.137496" lon="3.659512">
       <ele>166.16</ele>
       <time>2014-11-07T23:37:25Z</time>
      </trkpt>
      <trkpt lat="50.137481" lon="3.658797">
       <ele>166.51</ele>
       <time>2014-11-07T23:37:34Z</time>
      </trkpt>
      <trkpt lat="50.137504" lon="3.658334">
       <ele>165.97</ele>
       <time>2014-11-07T23:37:40Z</time>
      </trkpt>
      <trkpt lat="50.137550" lon="3.657907">
       <ele>165.25</ele>
       <time>2014-11-07T23:37:46Z</time>
      </trkpt>
      <trkpt lat="50.136619" lon="3.656749">
       <ele>164.04</ele>
       <time>2014-11-07T23:38:11Z</time>
      </trkpt>
      <trkpt lat="50.136264" lon="3.656068">
       <ele>163.17</ele>
       <time>2014-11-07T23:38:22Z</time>
      </trkpt>
      <trkpt lat="50.135917" lon="3.655344">
       <ele>160.5</ele>
       <time>2014-11-07T23:38:34Z</time>
      </trkpt>
      <trkpt lat="50.135700" lon="3.654577">
       <ele>159.72</ele>
       <time>2014-11-07T23:38:46Z</time>
      </trkpt>
      <trkpt lat="50.135593" lon="3.654083">
       <ele>160.12</ele>
       <time>2014-11-07T23:38:52Z</time>
      </trkpt>
      <trkpt lat="50.135429" lon="3.653479">
       <ele>160.54</ele>
       <time>2014-11-07T23:39:01Z</time>
      </trkpt>
      <trkpt lat="50.135200" lon="3.652225">
       <ele>160.93</ele>
       <time>2014-11-07T23:39:19Z</time>
      </trkpt>
      <trkpt lat="50.135070" lon="3.651196">
       <ele>161.79</ele>
       <time>2014-11-07T23:39:32Z</time>
      </trkpt>
      <trkpt lat="50.134963" lon="3.650542">
       <ele>162.35</ele>
       <time>2014-11-07T23:39:41Z</time>
      </trkpt>
      <trkpt lat="50.134826" lon="3.649976">
       <ele>162.98</ele>
       <time>2014-11-07T23:39:49Z</time>
      </trkpt>
      <trkpt lat="50.134372" lon="3.648416">
       <ele>161.85</ele>
       <time>2014-11-07T23:40:12Z</time>
      </trkpt>
      <trkpt lat="50.134128" lon="3.646631">
       <ele>162</ele>
       <time>2014-11-07T23:40:36Z</time>
      </trkpt>
      <trkpt lat="50.134017" lon="3.646049">
       <ele>161.44</ele>
       <time>2014-11-07T23:40:45Z</time>
      </trkpt>
      <trkpt lat="50.133941" lon="3.645457">
       <ele>161.03</ele>
       <time>2014-11-07T23:40:53Z</time>
      </trkpt>
      <trkpt lat="50.133747" lon="3.643476">
       <ele>160.08</ele>
       <time>2014-11-07T23:41:19Z</time>
      </trkpt>
      <trkpt lat="50.133499" lon="3.642302">
       <ele>160.02</ele>
       <time>2014-11-07T23:41:36Z</time>
      </trkpt>
      <trkpt lat="50.133415" lon="3.641669">
       <ele>161.19</ele>
       <time>2014-11-07T23:41:44Z</time>
      </trkpt>
      <trkpt lat="50.133327" lon="3.640255">
       <ele>162.29</ele>
       <time>2014-11-07T23:42:03Z</time>
      </trkpt>
      <trkpt lat="50.132640" lon="3.634753">
       <ele>158.88</ele>
       <time>2014-11-07T23:43:18Z</time>
      </trkpt>
      <trkpt lat="50.132308" lon="3.633130">
       <ele>158.79</ele>
       <time>2014-11-07T23:43:40Z</time>
      </trkpt>
      <trkpt lat="50.132217" lon="3.632421">
       <ele>159.45</ele>
       <time>2014-11-07T23:43:50Z</time>
      </trkpt>
      <trkpt lat="50.132179" lon="3.631510">
       <ele>160.62</ele>
       <time>2014-11-07T23:44:02Z</time>
      </trkpt>
      <trkpt lat="50.132160" lon="3.629667">
       <ele>158.93</ele>
       <time>2014-11-07T23:44:26Z</time>
      </trkpt>
      <trkpt lat="50.132240" lon="3.628880">
       <ele>157.59</ele>
       <time>2014-11-07T23:44:37Z</time>
      </trkpt>
      <trkpt lat="50.132461" lon="3.627238">
       <ele>155.73</ele>
       <time>2014-11-07T23:44:59Z</time>
      </trkpt>
      <trkpt lat="50.132499" lon="3.626672">
       <ele>155.01</ele>
       <time>2014-11-07T23:45:07Z</time>
      </trkpt>
      <trkpt lat="50.132472" lon="3.626245">
       <ele>154.95</ele>
       <time>2014-11-07T23:45:13Z</time>
      </trkpt>
      <trkpt lat="50.132427" lon="3.625919">
       <ele>154.83</ele>
       <time>2014-11-07T23:45:17Z</time>
      </trkpt>
      <trkpt lat="50.132232" lon="3.624985">
       <ele>153.3</ele>
       <time>2014-11-07T23:45:30Z</time>
      </trkpt>
      <trkpt lat="50.132034" lon="3.624212">
       <ele>152.61</ele>
       <time>2014-11-07T23:45:41Z</time>
      </trkpt>
      <trkpt lat="50.131904" lon="3.623271">
       <ele>152.79</ele>
       <time>2014-11-07T23:45:54Z</time>
      </trkpt>
      <trkpt lat="50.131900" lon="3.622812">
       <ele>153.34</ele>
       <time>2014-11-07T23:46:00Z</time>
      </trkpt>
      <trkpt lat="50.131969" lon="3.622122">
       <ele>153.22</ele>
       <time>2014-11-07T23:46:09Z</time>
      </trkpt>
      <trkpt lat="50.131870" lon="3.619179">
       <ele>151.01</ele>
       <time>2014-11-07T23:46:49Z</time>
      </trkpt>
      <trkpt lat="50.131881" lon="3.618881">
       <ele>150.66</ele>
       <time>2014-11-07T23:46:53Z</time>
      </trkpt>
      <trkpt lat="50.131591" lon="3.617418">
       <ele>150.1</ele>
       <time>2014-11-07T23:47:13Z</time>
      </trkpt>
      <trkpt lat="50.131385" lon="3.616080">
       <ele>150.91</ele>
       <time>2014-11-07T23:47:31Z</time>
      </trkpt>
      <trkpt lat="50.131069" lon="3.613512">
       <ele>150.66</ele>
       <time>2014-11-07T23:48:06Z</time>
      </trkpt>
      <trkpt lat="50.130893" lon="3.612396">
       <ele>152.66</ele>
       <time>2014-11-07T23:48:21Z</time>
      </trkpt>
      <trkpt lat="50.130878" lon="3.612107">
       <ele>152.37</ele>
       <time>2014-11-07T23:48:25Z</time>
      </trkpt>
      <trkpt lat="50.130889" lon="3.611969">
       <ele>152.16</ele>
       <time>2014-11-07T23:48:27Z</time>
      </trkpt>
      <trkpt lat="50.131095" lon="3.610898">
       <ele>149.5</ele>
       <time>2014-11-07T23:48:42Z</time>
      </trkpt>
      <trkpt lat="50.131153" lon="3.610479">
       <ele>148.64</ele>
       <time>2014-11-07T23:48:47Z</time>
      </trkpt>
      <trkpt lat="50.131175" lon="3.610152">
       <ele>148.02</ele>
       <time>2014-11-07T23:48:52Z</time>
      </trkpt>
      <trkpt lat="50.131160" lon="3.609646">
       <ele>147.23</ele>
       <time>2014-11-07T23:48:59Z</time>
      </trkpt>
      <trkpt lat="50.131023" lon="3.607820">
       <ele>144.59</ele>
       <time>2014-11-07T23:49:23Z</time>
      </trkpt>
      <trkpt lat="50.131038" lon="3.606811">
       <ele>143.38</ele>
       <time>2014-11-07T23:49:36Z</time>
      </trkpt>
      <trkpt lat="50.131145" lon="3.605937">
       <ele>141.62</ele>
       <time>2014-11-07T23:49:48Z</time>
      </trkpt>
      <trkpt lat="50.131294" lon="3.605026">
       <ele>140.58</ele>
       <time>2014-11-07T23:50:01Z</time>
      </trkpt>
      <trkpt lat="50.131408" lon="3.604573">
       <ele>140.85</ele>
       <time>2014-11-07T23:50:07Z</time>
      </trkpt>
      <trkpt lat="50.131549" lon="3.604196">
       <ele>141</ele>
       <time>2014-11-07T23:50:13Z</time>
      </trkpt>
      <trkpt lat="50.131816" lon="3.603616">
       <ele>141.42</ele>
       <time>2014-11-07T23:50:22Z</time>
      </trkpt>
      <trkpt lat="50.132011" lon="3.603117">
       <ele>141.68</ele>
       <time>2014-11-07T23:50:30Z</time>
      </trkpt>
      <trkpt lat="50.132106" lon="3.602767">
       <ele>141.74</ele>
       <time>2014-11-07T23:50:35Z</time>
      </trkpt>
      <trkpt lat="50.132396" lon="3.601413">
       <ele>141.24</ele>
       <time>2014-11-07T23:50:54Z</time>
      </trkpt>
      <trkpt lat="50.133193" lon="3.596720">
       <ele>144.65</ele>
       <time>2014-11-07T23:51:59Z</time>
      </trkpt>
      <trkpt lat="50.133930" lon="3.590898">
       <ele>145.77</ele>
       <time>2014-11-07T23:53:18Z</time>
      </trkpt>
      <trkpt lat="50.134624" lon="3.585668">
       <ele>142.36</ele>
       <time>2014-11-07T23:54:29Z</time>
      </trkpt>
      <trkpt lat="50.134719" lon="3.585134">
       <ele>142.05</ele>
       <time>2014-11-07T23:54:36Z</time>
      </trkpt>
      <trkpt lat="50.134803" lon="3.584784">
       <ele>141.8</ele>
       <time>2014-11-07T23:54:41Z</time>
      </trkpt>
      <trkpt lat="50.135139" lon="3.583436">
       <ele>140.14</ele>
       <time>2014-11-07T23:55:00Z</time>
      </trkpt>
      <trkpt lat="50.135372" lon="3.582587">
       <ele>140.5</ele>
       <time>2014-11-07T23:55:13Z</time>
      </trkpt>
      <trkpt lat="50.135505" lon="3.582360">
       <ele>140.36</ele>
       <time>2014-11-07T23:55:17Z</time>
      </trkpt>
      <trkpt lat="50.137126" lon="3.578988">
       <ele>142.01</ele>
       <time>2014-11-07T23:56:13Z</time>
      </trkpt>
      <trkpt lat="50.138225" lon="3.576889">
       <ele>140.99</ele>
       <time>2014-11-07T23:56:49Z</time>
      </trkpt>
      <trkpt lat="50.138839" lon="3.575567">
       <ele>143.64</ele>
       <time>2014-11-07T23:57:10Z</time>
      </trkpt>
      <trkpt lat="50.139034" lon="3.575103">
       <ele>144.75</ele>
       <time>2014-11-07T23:57:18Z</time>
      </trkpt>
      <trkpt lat="50.139228" lon="3.574568">
       <ele>144.48</ele>
       <time>2014-11-07T23:57:26Z</time>
      </trkpt>
      <trkpt lat="50.139553" lon="3.573498">
       <ele>144.46</ele>
       <time>2014-11-07T23:57:42Z</time>
      </trkpt>
      <trkpt lat="50.139671" lon="3.573204">
       <ele>144.54</ele>
       <time>2014-11-07T23:57:46Z</time>
      </trkpt>
      <trkpt lat="50.140766" lon="3.571316">
       <ele>143.53</ele>
       <time>2014-11-07T23:58:20Z</time>
      </trkpt>
      <trkpt lat="50.140628" lon="3.571114">
       <ele>143.25</ele>
       <time>2014-11-07T23:58:24Z</time>
      </trkpt>
      <trkpt lat="50.140716" lon="3.570902">
       <ele>143.07</ele>
       <time>2014-11-07T23:58:27Z</time>
      </trkpt>
      <trkpt lat="50.140857" lon="3.570369">
       <ele>142.88</ele>
       <time>2014-11-07T23:58:35Z</time>
      </trkpt>
      <trkpt lat="50.140876" lon="3.570249">
       <ele>142.79</ele>
       <time>2014-11-07T23:58:37Z</time>
      </trkpt>
      <trkpt lat="50.140872" lon="3.570064">
       <ele>142.81</ele>
       <time>2014-11-07T23:58:39Z</time>
      </trkpt>
      <trkpt lat="50.140628" lon="3.569098">
       <ele>141.41</ele>
       <time>2014-11-07T23:58:53Z</time>
      </trkpt>
      <trkpt lat="50.140579" lon="3.568824">
       <ele>140.85</ele>
       <time>2014-11-07T23:58:57Z</time>
      </trkpt>
      <trkpt lat="50.140609" lon="3.568627">
       <ele>140.64</ele>
       <time>2014-11-07T23:58:59Z</time>
      </trkpt>
      <trkpt lat="50.141017" lon="3.567492">
       <ele>139.54</ele>
       <time>2014-11-07T23:59:17Z</time>
      </trkpt>
      <trkpt lat="50.141311" lon="3.566570">
       <ele>136.67</ele>
       <time>2014-11-07T23:59:30Z</time>
      </trkpt>
      <trkpt lat="50.142768" lon="3.562495">
       <ele>129.33</ele>
       <time>2014-11-08T00:00:32Z</time>
      </trkpt>
      <trkpt lat="50.142879" lon="3.562247">
       <ele>130.06</ele>
       <time>2014-11-08T00:00:36Z</time>
      </trkpt>
      <trkpt lat="50.143581" lon="3.560903">
       <ele>132.05</ele>
       <time>2014-11-08T00:00:59Z</time>
      </trkpt>
      <trkpt lat="50.143672" lon="3.560698">
       <ele>131.78</ele>
       <time>2014-11-08T00:01:03Z</time>
      </trkpt>
      <trkpt lat="50.143711" lon="3.560585">
       <ele>131.64</ele>
       <time>2014-11-08T00:01:04Z</time>
      </trkpt>
      <trkpt lat="50.143745" lon="3.560405">
       <ele>131.52</ele>
       <time>2014-11-08T00:01:07Z</time>
      </trkpt>
      <trkpt lat="50.143730" lon="3.560260">
       <ele>131.57</ele>
       <time>2014-11-08T00:01:09Z</time>
      </trkpt>
      <trkpt lat="50.143798" lon="3.560142">
       <ele>131.32</ele>
       <time>2014-11-08T00:01:11Z</time>
      </trkpt>
      <trkpt lat="50.144111" lon="3.559304">
       <ele>130.98</ele>
       <time>2014-11-08T00:01:24Z</time>
      </trkpt>
      <trkpt lat="50.144428" lon="3.559612">
       <ele>129.69</ele>
       <time>2014-11-08T00:01:32Z</time>
      </trkpt>
      <trkpt lat="50.144515" lon="3.559587">
       <ele>129.45</ele>
       <time>2014-11-08T00:01:33Z</time>
      </trkpt>
      <trkpt lat="50.145668" lon="3.558233">
       <ele>126.42</ele>
       <time>2014-11-08T00:02:03Z</time>
      </trkpt>
      <trkpt lat="50.146907" lon="3.556385">
       <ele>128.86</ele>
       <time>2014-11-08T00:02:39Z</time>
      </trkpt>
      <trkpt lat="50.147567" lon="3.555565">
       <ele>128.7</ele>
       <time>2014-11-08T00:02:56Z</time>
      </trkpt>
      <trkpt lat="50.148178" lon="3.554738">
       <ele>126.81</ele>
       <time>2014-11-08T00:03:13Z</time>
      </trkpt>
      <trkpt lat="50.149021" lon="3.553791">
       <ele>125.8</ele>
       <time>2014-11-08T00:03:35Z</time>
      </trkpt>
      <trkpt lat="50.151844" lon="3.550348">
       <ele>124.98</ele>
       <time>2014-11-08T00:04:49Z</time>
      </trkpt>
      <trkpt lat="50.152511" lon="3.549459">
       <ele>122.96</ele>
       <time>2014-11-08T00:05:07Z</time>
      </trkpt>
      <trkpt lat="50.152889" lon="3.548913">
       <ele>121.6</ele>
       <time>2014-11-08T00:05:18Z</time>
      </trkpt>
      <trkpt lat="50.153144" lon="3.548378">
       <ele>120.68</ele>
       <time>2014-11-08T00:05:27Z</time>
      </trkpt>
      <trkpt lat="50.153453" lon="3.547601">
       <ele>120.04</ele>
       <time>2014-11-08T00:05:39Z</time>
      </trkpt>
      <trkpt lat="50.153617" lon="3.547291">
       <ele>119.99</ele>
       <time>2014-11-08T00:05:44Z</time>
      </trkpt>
      <trkpt lat="50.153839" lon="3.546927">
       <ele>119.44</ele>
       <time>2014-11-08T00:05:51Z</time>
      </trkpt>
      <trkpt lat="50.154285" lon="3.546410">
       <ele>118.6</ele>
       <time>2014-11-08T00:06:02Z</time>
      </trkpt>
      <trkpt lat="50.154598" lon="3.546005">
       <ele>119.11</ele>
       <time>2014-11-08T00:06:11Z</time>
      </trkpt>
      <trkpt lat="50.155796" lon="3.544008">
       <ele>118.83</ele>
       <time>2014-11-08T00:06:47Z</time>
      </trkpt>
      <trkpt lat="50.156166" lon="3.543358">
       <ele>118.03</ele>
       <time>2014-11-08T00:06:59Z</time>
      </trkpt>
      <trkpt lat="50.156730" lon="3.542253">
       <ele>117.93</ele>
       <time>2014-11-08T00:07:17Z</time>
      </trkpt>
      <trkpt lat="50.156967" lon="3.541731">
       <ele>118.16</ele>
       <time>2014-11-08T00:07:26Z</time>
      </trkpt>
      <trkpt lat="50.157279" lon="3.540981">
       <ele>118.6</ele>
       <time>2014-11-08T00:07:38Z</time>
      </trkpt>
      <trkpt lat="50.157314" lon="3.540837">
       <ele>118.56</ele>
       <time>2014-11-08T00:07:40Z</time>
      </trkpt>
      <trkpt lat="50.157844" lon="3.540879">
       <ele>120.3</ele>
       <time>2014-11-08T00:07:51Z</time>
      </trkpt>
      <trkpt lat="50.157993" lon="3.540668">
       <ele>120.81</ele>
       <time>2014-11-08T00:07:55Z</time>
      </trkpt>
      <trkpt lat="50.158084" lon="3.540460">
       <ele>121.29</ele>
       <time>2014-11-08T00:07:58Z</time>
      </trkpt>
      <trkpt lat="50.158287" lon="3.539855">
       <ele>122.56</ele>
       <time>2014-11-08T00:08:08Z</time>
      </trkpt>
      <trkpt lat="50.158798" lon="3.538172">
       <ele>120.14</ele>
       <time>2014-11-08T00:08:32Z</time>
      </trkpt>
      <trkpt lat="50.159126" lon="3.537492">
       <ele>121.79</ele>
       <time>2014-11-08T00:08:44Z</time>
      </trkpt>
      <trkpt lat="50.159233" lon="3.537199">
       <ele>121.6</ele>
       <time>2014-11-08T00:08:48Z</time>
      </trkpt>
      <trkpt lat="50.159561" lon="3.535871">
       <ele>120.03</ele>
       <time>2014-11-08T00:09:07Z</time>
      </trkpt>
      <trkpt lat="50.159664" lon="3.535602">
       <ele>119.8</ele>
       <time>2014-11-08T00:09:11Z</time>
      </trkpt>
      <trkpt lat="50.159801" lon="3.535326">
       <ele>119.77</ele>
       <time>2014-11-08T00:09:16Z</time>
      </trkpt>
      <trkpt lat="50.160030" lon="3.534933">
       <ele>119.76</ele>
       <time>2014-11-08T00:09:23Z</time>
      </trkpt>
      <trkpt lat="50.160217" lon="3.534650">
       <ele>118.96</ele>
       <time>2014-11-08T00:09:28Z</time>
      </trkpt>
      <trkpt lat="50.161102" lon="3.533493">
       <ele>117.12</ele>
       <time>2014-11-08T00:09:52Z</time>
      </trkpt>
      <trkpt lat="50.161563" lon="3.532938">
       <ele>115.06</ele>
       <time>2014-11-08T00:10:04Z</time>
      </trkpt>
      <trkpt lat="50.162326" lon="3.532083">
       <ele>114.08</ele>
       <time>2014-11-08T00:10:24Z</time>
      </trkpt>
      <trkpt lat="50.162631" lon="3.531711">
       <ele>113.62</ele>
       <time>2014-11-08T00:10:32Z</time>
      </trkpt>
      <trkpt lat="50.163322" lon="3.530636">
       <ele>111.04</ele>
       <time>2014-11-08T00:10:52Z</time>
      </trkpt>
      <trkpt lat="50.164218" lon="3.529484">
       <ele>106.46</ele>
       <time>2014-11-08T00:11:16Z</time>
      </trkpt>
      <trkpt lat="50.164398" lon="3.529350">
       <ele>105.6</ele>
       <time>2014-11-08T00:11:20Z</time>
      </trkpt>
      <trkpt lat="50.164562" lon="3.529268">
       <ele>105.01</ele>
       <time>2014-11-08T00:11:24Z</time>
      </trkpt>
      <trkpt lat="50.164703" lon="3.529144">
       <ele>104.38</ele>
       <time>2014-11-08T00:11:27Z</time>
      </trkpt>
      <trkpt lat="50.164913" lon="3.528872">
       <ele>104.18</ele>
       <time>2014-11-08T00:11:33Z</time>
      </trkpt>
      <trkpt lat="50.165214" lon="3.528424">
       <ele>103.8</ele>
       <time>2014-11-08T00:11:41Z</time>
      </trkpt>
      <trkpt lat="50.165721" lon="3.527405">
       <ele>104.61</ele>
       <time>2014-11-08T00:11:58Z</time>
      </trkpt>
      <trkpt lat="50.166126" lon="3.526736">
       <ele>106.75</ele>
       <time>2014-11-08T00:12:11Z</time>
      </trkpt>
      <trkpt lat="50.166542" lon="3.525948">
       <ele>109.72</ele>
       <time>2014-11-08T00:12:24Z</time>
      </trkpt>
      <trkpt lat="50.166721" lon="3.525705">
       <ele>109.96</ele>
       <time>2014-11-08T00:12:29Z</time>
      </trkpt>
      <trkpt lat="50.166896" lon="3.525532">
       <ele>109.53</ele>
       <time>2014-11-08T00:12:33Z</time>
      </trkpt>
      <trkpt lat="50.167793" lon="3.524842">
       <ele>106.86</ele>
       <time>2014-11-08T00:12:54Z</time>
      </trkpt>
      <trkpt lat="50.168205" lon="3.524610">
       <ele>106.2</ele>
       <time>2014-11-08T00:13:03Z</time>
      </trkpt>
      <trkpt lat="50.168239" lon="3.524672">
       <ele>105.85</ele>
       <time>2014-11-08T00:13:04Z</time>
      </trkpt>
      <trkpt lat="50.168403" lon="3.524804">
       <ele>104.82</ele>
       <time>2014-11-08T00:13:08Z</time>
      </trkpt>
      <trkpt lat="50.168956" lon="3.525157">
       <ele>102.73</ele>
       <time>2014-11-08T00:13:21Z</time>
      </trkpt>
      <trkpt lat="50.169170" lon="3.525248">
       <ele>102.09</ele>
       <time>2014-11-08T00:13:25Z</time>
      </trkpt>
      <trkpt lat="50.169666" lon="3.525386">
       <ele>99.49</ele>
       <time>2014-11-08T00:13:36Z</time>
      </trkpt>
      <trkpt lat="50.170009" lon="3.525463">
       <ele>97.89</ele>
       <time>2014-11-08T00:13:43Z</time>
      </trkpt>
      <trkpt lat="50.170288" lon="3.525594">
       <ele>97.82</ele>
       <time>2014-11-08T00:13:49Z</time>
      </trkpt>
      <trkpt lat="50.170532" lon="3.525732">
       <ele>97.8</ele>
       <time>2014-11-08T00:13:54Z</time>
      </trkpt>
      <trkpt lat="50.171031" lon="3.526057">
       <ele>98.87</ele>
       <time>2014-11-08T00:14:05Z</time>
      </trkpt>
      <trkpt lat="50.171100" lon="3.526077">
       <ele>98.97</ele>
       <time>2014-11-08T00:14:07Z</time>
      </trkpt>
      <trkpt lat="50.171161" lon="3.526091">
       <ele>99.05</ele>
       <time>2014-11-08T00:14:08Z</time>
      </trkpt>
      <trkpt lat="50.171352" lon="3.526072">
       <ele>99.04</ele>
       <time>2014-11-08T00:14:12Z</time>
      </trkpt>
      <trkpt lat="50.171989" lon="3.525907">
       <ele>98.03</ele>
       <time>2014-11-08T00:14:26Z</time>
      </trkpt>
      <trkpt lat="50.172851" lon="3.525953">
       <ele>98.52</ele>
       <time>2014-11-08T00:14:43Z</time>
      </trkpt>
      <trkpt lat="50.173011" lon="3.525979">
       <ele>98.96</ele>
       <time>2014-11-08T00:14:47Z</time>
      </trkpt>
      <trkpt lat="50.173160" lon="3.526046">
       <ele>99.51</ele>
       <time>2014-11-08T00:14:50Z</time>
      </trkpt>
      <trkpt lat="50.173297" lon="3.526168">
       <ele>100.17</ele>
       <time>2014-11-08T00:14:53Z</time>
      </trkpt>
      <trkpt lat="50.173782" lon="3.526858">
       <ele>102.81</ele>
       <time>2014-11-08T00:15:07Z</time>
      </trkpt>
      <trkpt lat="50.174037" lon="3.527117">
       <ele>104.08</ele>
       <time>2014-11-08T00:15:13Z</time>
      </trkpt>
      <trkpt lat="50.174312" lon="3.527363">
       <ele>105.2</ele>
       <time>2014-11-08T00:15:20Z</time>
      </trkpt>
      <trkpt lat="50.174472" lon="3.527452">
       <ele>105.42</ele>
       <time>2014-11-08T00:15:23Z</time>
      </trkpt>
      <trkpt lat="50.174663" lon="3.527487">
       <ele>105.35</ele>
       <time>2014-11-08T00:15:27Z</time>
      </trkpt>
      <trkpt lat="50.175132" lon="3.527466">
       <ele>104.72</ele>
       <time>2014-11-08T00:15:37Z</time>
      </trkpt>
      <trkpt lat="50.175765" lon="3.527388">
       <ele>103.68</ele>
       <time>2014-11-08T00:15:50Z</time>
      </trkpt>
      <trkpt lat="50.176040" lon="3.527332">
       <ele>102.9</ele>
       <time>2014-11-08T00:15:56Z</time>
      </trkpt>
      <trkpt lat="50.176559" lon="3.527178">
       <ele>101.1</ele>
       <time>2014-11-08T00:16:07Z</time>
      </trkpt>
      <trkpt lat="50.176803" lon="3.527132">
       <ele>100.51</ele>
       <time>2014-11-08T00:16:12Z</time>
      </trkpt>
      <trkpt lat="50.177398" lon="3.527162">
       <ele>99.91</ele>
       <time>2014-11-08T00:16:24Z</time>
      </trkpt>
      <trkpt lat="50.177894" lon="3.527168">
       <ele>97.81</ele>
       <time>2014-11-08T00:16:35Z</time>
      </trkpt>
      <trkpt lat="50.178253" lon="3.527220">
       <ele>96.08</ele>
       <time>2014-11-08T00:16:42Z</time>
      </trkpt>
      <trkpt lat="50.179035" lon="3.527467">
       <ele>94.31</ele>
       <time>2014-11-08T00:16:59Z</time>
      </trkpt>
      <trkpt lat="50.179321" lon="3.527451">
       <ele>94.73</ele>
       <time>2014-11-08T00:17:05Z</time>
      </trkpt>
      <trkpt lat="50.179458" lon="3.522722">
       <ele>86.75</ele>
       <time>2014-11-08T00:18:07Z</time>
      </trkpt>
      <trkpt lat="50.179492" lon="3.522305">
       <ele>86.54</ele>
       <time>2014-11-08T00:18:13Z</time>
      </trkpt>
      <trkpt lat="50.179531" lon="3.522056">
       <ele>86.89</ele>
       <time>2014-11-08T00:18:16Z</time>
      </trkpt>
      <trkpt lat="50.179676" lon="3.521522">
       <ele>87.32</ele>
       <time>2014-11-08T00:18:24Z</time>
      </trkpt>
      <trkpt lat="50.179798" lon="3.521233">
       <ele>87.12</ele>
       <time>2014-11-08T00:18:29Z</time>
      </trkpt>
      <trkpt lat="50.182197" lon="3.516622">
       <ele>89.91</ele>
       <time>2014-11-08T00:19:48Z</time>
      </trkpt>
      <trkpt lat="50.183067" lon="3.514765">
       <ele>92.19</ele>
       <time>2014-11-08T00:20:18Z</time>
      </trkpt>
      <trkpt lat="50.183776" lon="3.512897">
       <ele>88.39</ele>
       <time>2014-11-08T00:20:47Z</time>
      </trkpt>
      <trkpt lat="50.184806" lon="3.510185">
       <ele>86.58</ele>
       <time>2014-11-08T00:21:29Z</time>
      </trkpt>
      <trkpt lat="50.185058" lon="3.509478">
       <ele>85.16</ele>
       <time>2014-11-08T00:21:40Z</time>
      </trkpt>
      <trkpt lat="50.186271" lon="3.510436">
       <ele>82.97</ele>
       <time>2014-11-08T00:22:08Z</time>
      </trkpt>
      <trkpt lat="50.187648" lon="3.511626">
       <ele>83.11</ele>
       <time>2014-11-08T00:22:40Z</time>
      </trkpt>
      <trkpt lat="50.188003" lon="3.511975">
       <ele>83.53</ele>
       <time>2014-11-08T00:22:49Z</time>
      </trkpt>
      <trkpt lat="50.188125" lon="3.512058">
       <ele>83.52</ele>
       <time>2014-11-08T00:22:52Z</time>
      </trkpt>
      <trkpt lat="50.188251" lon="3.512099">
       <ele>83.48</ele>
       <time>2014-11-08T00:22:54Z</time>
      </trkpt>
      <trkpt lat="50.188339" lon="3.512161">
       <ele>83.4</ele>
       <time>2014-11-08T00:22:56Z</time>
      </trkpt>
      <trkpt lat="50.188621" lon="3.512701">
       <ele>83.14</ele>
       <time>2014-11-08T00:23:06Z</time>
      </trkpt>
      <trkpt lat="50.188804" lon="3.513004">
       <ele>83.64</ele>
       <time>2014-11-08T00:23:11Z</time>
      </trkpt>
      <trkpt lat="50.189197" lon="3.513561">
       <ele>84.65</ele>
       <time>2014-11-08T00:23:22Z</time>
      </trkpt>
      <trkpt lat="50.189979" lon="3.514919">
       <ele>86</ele>
       <time>2014-11-08T00:23:46Z</time>
      </trkpt>
      <trkpt lat="50.191535" lon="3.517560">
       <ele>91.49</ele>
       <time>2014-11-08T00:24:34Z</time>
      </trkpt>
      <trkpt lat="50.191905" lon="3.518269">
       <ele>92.91</ele>
       <time>2014-11-08T00:24:46Z</time>
      </trkpt>
      <trkpt lat="50.192691" lon="3.519653">
       <ele>95.59</ele>
       <time>2014-11-08T00:25:11Z</time>
      </trkpt>
      <trkpt lat="50.193416" lon="3.520988">
       <ele>98.37</ele>
       <time>2014-11-08T00:25:34Z</time>
      </trkpt>
      <trkpt lat="50.194377" lon="3.522855">
       <ele>102.64</ele>
       <time>2014-11-08T00:26:06Z</time>
      </trkpt>
      <trkpt lat="50.195461" lon="3.524646">
       <ele>102.32</ele>
       <time>2014-11-08T00:26:39Z</time>
      </trkpt>
      <trkpt lat="50.195880" lon="3.525422">
       <ele>102.1</ele>
       <time>2014-11-08T00:26:52Z</time>
      </trkpt>
      <trkpt lat="50.196125" lon="3.526042">
       <ele>102.05</ele>
       <time>2014-11-08T00:27:02Z</time>
      </trkpt>
      <trkpt lat="50.196239" lon="3.526525">
       <ele>102.46</ele>
       <time>2014-11-08T00:27:09Z</time>
      </trkpt>
      <trkpt lat="50.196105" lon="3.526854">
       <ele>102.13</ele>
       <time>2014-11-08T00:27:14Z</time>
      </trkpt>
      <trkpt lat="50.196025" lon="3.527148">
       <ele>102.14</ele>
       <time>2014-11-08T00:27:18Z</time>
      </trkpt>
      <trkpt lat="50.195922" lon="3.527601">
       <ele>102.11</ele>
       <time>2014-11-08T00:27:24Z</time>
      </trkpt>
      <trkpt lat="50.195781" lon="3.528438">
       <ele>101.24</ele>
       <time>2014-11-08T00:27:36Z</time>
      </trkpt>
      <trkpt lat="50.195671" lon="3.528769">
       <ele>101.94</ele>
       <time>2014-11-08T00:27:41Z</time>
      </trkpt>
      <trkpt lat="50.195529" lon="3.529135">
       <ele>102.57</ele>
       <time>2014-11-08T00:27:46Z</time>
      </trkpt>
      <trkpt lat="50.195121" lon="3.530035">
       <ele>103.19</ele>
       <time>2014-11-08T00:28:01Z</time>
      </trkpt>
      <trkpt lat="50.194389" lon="3.531573">
       <ele>103.27</ele>
       <time>2014-11-08T00:28:27Z</time>
      </trkpt>
      <trkpt lat="50.194328" lon="3.531883">
       <ele>103.76</ele>
       <time>2014-11-08T00:28:31Z</time>
      </trkpt>
      <trkpt lat="50.194328" lon="3.531999">
       <ele>104.07</ele>
       <time>2014-11-08T00:28:32Z</time>
      </trkpt>
      <trkpt lat="50.194416" lon="3.531945">
       <ele>104.07</ele>
       <time>2014-11-08T00:28:34Z</time>
      </trkpt>
      <trkpt lat="50.195148" lon="3.531641">
       <ele>104.36</ele>
       <time>2014-11-08T00:28:50Z</time>
      </trkpt>
      <trkpt lat="50.195320" lon="3.531595">
       <ele>104.77</ele>
       <time>2014-11-08T00:28:54Z</time>
      </trkpt>
      <trkpt lat="50.196666" lon="3.531476">
       <ele>106.23</ele>
       <time>2014-11-08T00:29:22Z</time>
      </trkpt>
      <trkpt lat="50.199230" lon="3.531116">
       <ele>98.09</ele>
       <time>2014-11-08T00:30:15Z</time>
      </trkpt>
      <trkpt lat="50.199581" lon="3.531048">
       <ele>96.99</ele>
       <time>2014-11-08T00:30:22Z</time>
      </trkpt>
      <trkpt lat="50.199863" lon="3.531080">
       <ele>95.9</ele>
       <time>2014-11-08T00:30:28Z</time>
      </trkpt>
      <trkpt lat="50.200061" lon="3.531069">
       <ele>95.33</ele>
       <time>2014-11-08T00:30:32Z</time>
      </trkpt>
      <trkpt lat="50.200199" lon="3.531244">
       <ele>94.77</ele>
       <time>2014-11-08T00:30:36Z</time>
      </trkpt>
      <trkpt lat="50.200344" lon="3.531336">
       <ele>94.47</ele>
       <time>2014-11-08T00:30:39Z</time>
      </trkpt>
      <trkpt lat="50.200542" lon="3.531368">
       <ele>94.25</ele>
       <time>2014-11-08T00:30:43Z</time>
      </trkpt>
      <trkpt lat="50.200862" lon="3.531384">
       <ele>94.05</ele>
       <time>2014-11-08T00:30:50Z</time>
      </trkpt>
      <trkpt lat="50.201049" lon="3.531413">
       <ele>94.36</ele>
       <time>2014-11-08T00:30:54Z</time>
      </trkpt>
      <trkpt lat="50.201221" lon="3.531579">
       <ele>94.83</ele>
       <time>2014-11-08T00:30:58Z</time>
      </trkpt>
      <trkpt lat="50.201278" lon="3.531594">
       <ele>94.98</ele>
       <time>2014-11-08T00:30:59Z</time>
      </trkpt>
      <trkpt lat="50.201286" lon="3.531652">
       <ele>95.07</ele>
       <time>2014-11-08T00:31:00Z</time>
      </trkpt>
      <trkpt lat="50.201347" lon="3.531783">
       <ele>95.41</ele>
       <time>2014-11-08T00:31:02Z</time>
      </trkpt>
      <trkpt lat="50.201885" lon="3.532350">
       <ele>98.16</ele>
       <time>2014-11-08T00:31:16Z</time>
      </trkpt>
      <trkpt lat="50.201957" lon="3.532474">
       <ele>98.64</ele>
       <time>2014-11-08T00:31:18Z</time>
      </trkpt>
      <trkpt lat="50.202129" lon="3.532061">
       <ele>98.06</ele>
       <time>2014-11-08T00:31:24Z</time>
      </trkpt>
      <trkpt lat="50.202209" lon="3.531934">
       <ele>97.94</ele>
       <time>2014-11-08T00:31:27Z</time>
      </trkpt>
      <trkpt lat="50.202236" lon="3.532020">
       <ele>98.22</ele>
       <time>2014-11-08T00:31:28Z</time>
      </trkpt>
      <trkpt lat="50.203056" lon="3.533179">
       <ele>100.54</ele>
       <time>2014-11-08T00:31:51Z</time>
      </trkpt>
      <trkpt lat="50.203353" lon="3.533633">
       <ele>101.38</ele>
       <time>2014-11-08T00:32:00Z</time>
      </trkpt>
      <trkpt lat="50.203578" lon="3.534029">
       <ele>101.69</ele>
       <time>2014-11-08T00:32:07Z</time>
      </trkpt>
      <trkpt lat="50.203800" lon="3.534508">
       <ele>101.39</ele>
       <time>2014-11-08T00:32:15Z</time>
      </trkpt>
      <trkpt lat="50.203979" lon="3.534945">
       <ele>100.71</ele>
       <time>2014-11-08T00:32:21Z</time>
      </trkpt>
      <trkpt lat="50.204544" lon="3.536478">
       <ele>104</ele>
       <time>2014-11-08T00:32:45Z</time>
      </trkpt>
      <trkpt lat="50.204826" lon="3.537039">
       <ele>105.15</ele>
       <time>2014-11-08T00:32:54Z</time>
      </trkpt>
      <trkpt lat="50.206043" lon="3.539289">
       <ele>109.76</ele>
       <time>2014-11-08T00:33:33Z</time>
      </trkpt>
      <trkpt lat="50.206924" lon="3.540693">
       <ele>112.57</ele>
       <time>2014-11-08T00:34:00Z</time>
      </trkpt>
      <trkpt lat="50.207401" lon="3.541414">
       <ele>112.2</ele>
       <time>2014-11-08T00:34:13Z</time>
      </trkpt>
      <trkpt lat="50.207649" lon="3.541857">
       <ele>112.23</ele>
       <time>2014-11-08T00:34:21Z</time>
      </trkpt>
      <trkpt lat="50.207851" lon="3.542402">
       <ele>112.88</ele>
       <time>2014-11-08T00:34:29Z</time>
      </trkpt>
      <trkpt lat="50.210739" lon="3.550699">
       <ele>110.9</ele>
       <time>2014-11-08T00:36:35Z</time>
      </trkpt>
      <trkpt lat="50.210807" lon="3.551089">
       <ele>111.06</ele>
       <time>2014-11-08T00:36:40Z</time>
      </trkpt>
      <trkpt lat="50.210800" lon="3.552541">
       <ele>108.98</ele>
       <time>2014-11-08T00:36:59Z</time>
      </trkpt>
      <trkpt lat="50.210826" lon="3.553164">
       <ele>107.43</ele>
       <time>2014-11-08T00:37:08Z</time>
      </trkpt>
      <trkpt lat="50.210868" lon="3.553494">
       <ele>106.74</ele>
       <time>2014-11-08T00:37:12Z</time>
      </trkpt>
      <trkpt lat="50.212448" lon="3.561685">
       <ele>114.02</ele>
       <time>2014-11-08T00:39:06Z</time>
      </trkpt>
      <trkpt lat="50.213130" lon="3.565309">
       <ele>113.22</ele>
       <time>2014-11-08T00:39:56Z</time>
      </trkpt>
      <trkpt lat="50.213218" lon="3.565566">
       <ele>112.19</ele>
       <time>2014-11-08T00:40:00Z</time>
      </trkpt>
      <trkpt lat="50.213314" lon="3.565773">
       <ele>111.26</ele>
       <time>2014-11-08T00:40:03Z</time>
      </trkpt>
      <trkpt lat="50.213970" lon="3.566766">
       <ele>109.43</ele>
       <time>2014-11-08T00:40:22Z</time>
      </trkpt>
      <trkpt lat="50.215278" lon="3.568928">
       <ele>98</ele>
       <time>2014-11-08T00:41:01Z</time>
      </trkpt>
      <trkpt lat="50.215484" lon="3.569375">
       <ele>96.19</ele>
       <time>2014-11-08T00:41:09Z</time>
      </trkpt>
      <trkpt lat="50.216369" lon="3.572329">
       <ele>83.33</ele>
       <time>2014-11-08T00:41:52Z</time>
      </trkpt>
      <trkpt lat="50.216464" lon="3.572592">
       <ele>82.54</ele>
       <time>2014-11-08T00:41:56Z</time>
      </trkpt>
      <trkpt lat="50.216678" lon="3.572962">
       <ele>82.59</ele>
       <time>2014-11-08T00:42:03Z</time>
      </trkpt>
      <trkpt lat="50.217098" lon="3.573466">
       <ele>84.11</ele>
       <time>2014-11-08T00:42:14Z</time>
      </trkpt>
      <trkpt lat="50.217491" lon="3.573889">
       <ele>84.99</ele>
       <time>2014-11-08T00:42:24Z</time>
      </trkpt>
      <trkpt lat="50.217567" lon="3.574018">
       <ele>85.19</ele>
       <time>2014-11-08T00:42:26Z</time>
      </trkpt>
      <trkpt lat="50.217678" lon="3.574083">
       <ele>85.56</ele>
       <time>2014-11-08T00:42:28Z</time>
      </trkpt>
      <trkpt lat="50.218963" lon="3.575376">
       <ele>99.34</ele>
       <time>2014-11-08T00:43:00Z</time>
      </trkpt>
      <trkpt lat="50.219299" lon="3.575642">
       <ele>102.63</ele>
       <time>2014-11-08T00:43:08Z</time>
      </trkpt>
      <trkpt lat="50.221145" lon="3.577332">
       <ele>110.12</ele>
       <time>2014-11-08T00:43:52Z</time>
      </trkpt>
      <trkpt lat="50.222480" lon="3.578449">
       <ele>114.12</ele>
       <time>2014-11-08T00:44:24Z</time>
      </trkpt>
      <trkpt lat="50.223396" lon="3.579292">
       <ele>116.23</ele>
       <time>2014-11-08T00:44:46Z</time>
      </trkpt>
      <trkpt lat="50.225589" lon="3.581443">
       <ele>119.85</ele>
       <time>2014-11-08T00:45:39Z</time>
      </trkpt>
      <trkpt lat="50.226703" lon="3.582564">
       <ele>120.84</ele>
       <time>2014-11-08T00:46:07Z</time>
      </trkpt>
      <trkpt lat="50.227066" lon="3.583012">
       <ele>120.02</ele>
       <time>2014-11-08T00:46:16Z</time>
      </trkpt>
      <trkpt lat="50.228088" lon="3.584392">
       <ele>118.07</ele>
       <time>2014-11-08T00:46:44Z</time>
      </trkpt>
      <trkpt lat="50.228290" lon="3.584630">
       <ele>117.68</ele>
       <time>2014-11-08T00:46:50Z</time>
      </trkpt>
      <trkpt lat="50.228679" lon="3.584983">
       <ele>117.15</ele>
       <time>2014-11-08T00:46:59Z</time>
      </trkpt>
      <trkpt lat="50.229179" lon="3.585294">
       <ele>115.6</ele>
       <time>2014-11-08T00:47:10Z</time>
      </trkpt>
      <trkpt lat="50.229934" lon="3.585724">
       <ele>112.37</ele>
       <time>2014-11-08T00:47:27Z</time>
      </trkpt>
      <trkpt lat="50.231735" lon="3.586796">
       <ele>109.18</ele>
       <time>2014-11-08T00:48:07Z</time>
      </trkpt>
      <trkpt lat="50.232089" lon="3.587024">
       <ele>108.48</ele>
       <time>2014-11-08T00:48:15Z</time>
      </trkpt>
      <trkpt lat="50.232181" lon="3.587104">
       <ele>108.13</ele>
       <time>2014-11-08T00:48:17Z</time>
      </trkpt>
      <trkpt lat="50.232387" lon="3.587356">
       <ele>106.93</ele>
       <time>2014-11-08T00:48:22Z</time>
      </trkpt>
      <trkpt lat="50.232948" lon="3.588395">
       <ele>104.35</ele>
       <time>2014-11-08T00:48:40Z</time>
      </trkpt>
      <trkpt lat="50.233066" lon="3.588526">
       <ele>103.89</ele>
       <time>2014-11-08T00:48:43Z</time>
      </trkpt>
      <trkpt lat="50.233215" lon="3.588598">
       <ele>103.38</ele>
       <time>2014-11-08T00:48:47Z</time>
      </trkpt>
      <trkpt lat="50.233753" lon="3.588664">
       <ele>101.9</ele>
       <time>2014-11-08T00:48:58Z</time>
      </trkpt>
      <trkpt lat="50.234130" lon="3.588773">
       <ele>100.53</ele>
       <time>2014-11-08T00:49:06Z</time>
      </trkpt>
      <trkpt lat="50.234848" lon="3.589035">
       <ele>98.79</ele>
       <time>2014-11-08T00:49:21Z</time>
      </trkpt>
      <trkpt lat="50.235488" lon="3.589306">
       <ele>97.33</ele>
       <time>2014-11-08T00:49:35Z</time>
      </trkpt>
      <trkpt lat="50.235588" lon="3.589354">
       <ele>97.1</ele>
       <time>2014-11-08T00:49:37Z</time>
      </trkpt>
      <trkpt lat="50.235649" lon="3.589415">
       <ele>96.81</ele>
       <time>2014-11-08T00:49:38Z</time>
      </trkpt>
      <trkpt lat="50.235717" lon="3.589548">
       <ele>96.17</ele>
       <time>2014-11-08T00:49:41Z</time>
      </trkpt>
      <trkpt lat="50.235759" lon="3.589689">
       <ele>95.49</ele>
       <time>2014-11-08T00:49:43Z</time>
      </trkpt>
      <trkpt lat="50.235847" lon="3.590204">
       <ele>93.23</ele>
       <time>2014-11-08T00:49:50Z</time>
      </trkpt>
      <trkpt lat="50.235927" lon="3.590451">
       <ele>92.15</ele>
       <time>2014-11-08T00:49:53Z</time>
      </trkpt>
      <trkpt lat="50.235992" lon="3.590543">
       <ele>91.66</ele>
       <time>2014-11-08T00:49:55Z</time>
      </trkpt>
      <trkpt lat="50.236385" lon="3.590821">
       <ele>89.72</ele>
       <time>2014-11-08T00:50:04Z</time>
      </trkpt>
      <trkpt lat="50.236446" lon="3.590904">
       <ele>89.27</ele>
       <time>2014-11-08T00:50:06Z</time>
      </trkpt>
      <trkpt lat="50.236499" lon="3.591042">
       <ele>88.65</ele>
       <time>2014-11-08T00:50:08Z</time>
      </trkpt>
      <trkpt lat="50.236576" lon="3.591747">
       <ele>85.92</ele>
       <time>2014-11-08T00:50:18Z</time>
      </trkpt>
      <trkpt lat="50.236576" lon="3.591937">
       <ele>85.21</ele>
       <time>2014-11-08T00:50:20Z</time>
      </trkpt>
      <trkpt lat="50.236518" lon="3.592252">
       <ele>84.12</ele>
       <time>2014-11-08T00:50:24Z</time>
      </trkpt>
      <trkpt lat="50.236461" lon="3.592250">
       <ele>84.22</ele>
       <time>2014-11-08T00:50:26Z</time>
      </trkpt>
      <trkpt lat="50.236415" lon="3.592322">
       <ele>84.01</ele>
       <time>2014-11-08T00:50:27Z</time>
      </trkpt>
      <trkpt lat="50.236415" lon="3.592406">
       <ele>83.67</ele>
       <time>2014-11-08T00:50:28Z</time>
      </trkpt>
      <trkpt lat="50.236461" lon="3.592473">
       <ele>83.35</ele>
       <time>2014-11-08T00:50:29Z</time>
      </trkpt>
      <trkpt lat="50.236396" lon="3.592771">
       <ele>83</ele>
       <time>2014-11-08T00:50:34Z</time>
      </trkpt>
      <trkpt lat="50.236385" lon="3.593410">
       <ele>82.34</ele>
       <time>2014-11-08T00:50:42Z</time>
      </trkpt>
      <trkpt lat="50.236263" lon="3.594727">
       <ele>84.52</ele>
       <time>2014-11-08T00:51:00Z</time>
      </trkpt>
      <trkpt lat="50.236236" lon="3.595227">
       <ele>87.13</ele>
       <time>2014-11-08T00:51:06Z</time>
      </trkpt>
      <trkpt lat="50.236244" lon="3.595582">
       <ele>89.69</ele>
       <time>2014-11-08T00:51:11Z</time>
      </trkpt>
      <trkpt lat="50.236328" lon="3.596151">
       <ele>92.71</ele>
       <time>2014-11-08T00:51:19Z</time>
      </trkpt>
      <trkpt lat="50.236351" lon="3.596421">
       <ele>93.76</ele>
       <time>2014-11-08T00:51:22Z</time>
      </trkpt>
      <trkpt lat="50.236408" lon="3.597845">
       <ele>99.42</ele>
       <time>2014-11-08T00:51:41Z</time>
      </trkpt>
      <trkpt lat="50.236457" lon="3.598164">
       <ele>100.44</ele>
       <time>2014-11-08T00:51:46Z</time>
      </trkpt>
      <trkpt lat="50.236541" lon="3.598349">
       <ele>101.04</ele>
       <time>2014-11-08T00:51:49Z</time>
      </trkpt>
      <trkpt lat="50.236667" lon="3.598457">
       <ele>101.3</ele>
       <time>2014-11-08T00:51:52Z</time>
      </trkpt>
      <trkpt lat="50.237453" lon="3.598844">
       <ele>104.11</ele>
       <time>2014-11-08T00:52:09Z</time>
      </trkpt>
      <trkpt lat="50.237628" lon="3.598946">
       <ele>104.67</ele>
       <time>2014-11-08T00:52:13Z</time>
      </trkpt>
      <trkpt lat="50.237697" lon="3.599009">
       <ele>104.9</ele>
       <time>2014-11-08T00:52:14Z</time>
      </trkpt>
      <trkpt lat="50.237842" lon="3.599189">
       <ele>105.44</ele>
       <time>2014-11-08T00:52:18Z</time>
      </trkpt>
      <trkpt lat="50.238277" lon="3.599878">
       <ele>106.79</ele>
       <time>2014-11-08T00:52:31Z</time>
      </trkpt>
      <trkpt lat="50.238445" lon="3.600193">
       <ele>107.4</ele>
       <time>2014-11-08T00:52:36Z</time>
      </trkpt>
      <trkpt lat="50.238964" lon="3.601350">
       <ele>110.13</ele>
       <time>2014-11-08T00:52:55Z</time>
      </trkpt>
      <trkpt lat="50.239418" lon="3.602479">
       <ele>112.28</ele>
       <time>2014-11-08T00:53:13Z</time>
      </trkpt>
      <trkpt lat="50.239551" lon="3.602729">
       <ele>112.74</ele>
       <time>2014-11-08T00:53:17Z</time>
      </trkpt>
      <trkpt lat="50.239742" lon="3.603014">
       <ele>113.31</ele>
       <time>2014-11-08T00:53:23Z</time>
      </trkpt>
      <trkpt lat="50.240741" lon="3.604341">
       <ele>116.01</ele>
       <time>2014-11-08T00:53:50Z</time>
      </trkpt>
      <trkpt lat="50.241146" lon="3.604908">
       <ele>116.51</ele>
       <time>2014-11-08T00:54:01Z</time>
      </trkpt>
      <trkpt lat="50.241386" lon="3.605392">
       <ele>116.49</ele>
       <time>2014-11-08T00:54:09Z</time>
      </trkpt>
      <trkpt lat="50.243907" lon="3.612426">
       <ele>114.59</ele>
       <time>2014-11-08T00:55:56Z</time>
      </trkpt>
      <trkpt lat="50.246330" lon="3.619251">
       <ele>118.6</ele>
       <time>2014-11-08T00:57:40Z</time>
      </trkpt>
      <trkpt lat="50.248092" lon="3.624181">
       <ele>116.44</ele>
       <time>2014-11-08T00:58:54Z</time>
      </trkpt>
      <trkpt lat="50.248210" lon="3.624387">
       <ele>116.97</ele>
       <time>2014-11-08T00:58:58Z</time>
      </trkpt>
      <trkpt lat="50.248348" lon="3.624556">
       <ele>117.47</ele>
       <time>2014-11-08T00:59:02Z</time>
      </trkpt>
      <trkpt lat="50.248466" lon="3.624665">
       <ele>117.6</ele>
       <time>2014-11-08T00:59:05Z</time>
      </trkpt>
      <trkpt lat="50.248577" lon="3.624738">
       <ele>117.69</ele>
       <time>2014-11-08T00:59:07Z</time>
      </trkpt>
      <trkpt lat="50.248748" lon="3.624809">
       <ele>117.77</ele>
       <time>2014-11-08T00:59:11Z</time>
      </trkpt>
      <trkpt lat="50.249122" lon="3.624865">
       <ele>117.84</ele>
       <time>2014-11-08T00:59:19Z</time>
      </trkpt>
      <trkpt lat="50.249336" lon="3.624859">
       <ele>117.8</ele>
       <time>2014-11-08T00:59:23Z</time>
      </trkpt>
      <trkpt lat="50.249416" lon="3.624881">
       <ele>117.81</ele>
       <time>2014-11-08T00:59:25Z</time>
      </trkpt>
      <trkpt lat="50.249496" lon="3.624928">
       <ele>117.88</ele>
       <time>2014-11-08T00:59:26Z</time>
      </trkpt>
      <trkpt lat="50.249572" lon="3.625003">
       <ele>118</ele>
       <time>2014-11-08T00:59:28Z</time>
      </trkpt>
      <trkpt lat="50.249626" lon="3.625087">
       <ele>118.1</ele>
       <time>2014-11-08T00:59:30Z</time>
      </trkpt>
      <trkpt lat="50.249668" lon="3.625204">
       <ele>118.24</ele>
       <time>2014-11-08T00:59:32Z</time>
      </trkpt>
      <trkpt lat="50.249691" lon="3.625441">
       <ele>118.53</ele>
       <time>2014-11-08T00:59:35Z</time>
      </trkpt>
      <trkpt lat="50.249755" lon="3.625591">
       <ele>118.71</ele>
       <time>2014-11-08T00:59:37Z</time>
      </trkpt>
      <trkpt lat="50.249851" lon="3.625694">
       <ele>118.83</ele>
       <time>2014-11-08T00:59:40Z</time>
      </trkpt>
      <trkpt lat="50.249973" lon="3.626074">
       <ele>119.28</ele>
       <time>2014-11-08T00:59:45Z</time>
      </trkpt>
      <trkpt lat="50.250015" lon="3.626615">
       <ele>119.96</ele>
       <time>2014-11-08T00:59:53Z</time>
      </trkpt>
      <trkpt lat="50.249916" lon="3.627614">
       <ele>120.04</ele>
       <time>2014-11-08T01:00:06Z</time>
      </trkpt>
      <trkpt lat="50.249843" lon="3.627959">
       <ele>120.36</ele>
       <time>2014-11-08T01:00:11Z</time>
      </trkpt>
      <trkpt lat="50.249790" lon="3.628082">
       <ele>120.45</ele>
       <time>2014-11-08T01:00:13Z</time>
      </trkpt>
      <trkpt lat="50.249782" lon="3.628159">
       <ele>120.53</ele>
       <time>2014-11-08T01:00:14Z</time>
      </trkpt>
      <trkpt lat="50.249645" lon="3.628474">
       <ele>120.98</ele>
       <time>2014-11-08T01:00:19Z</time>
      </trkpt>
      <trkpt lat="50.249523" lon="3.628813">
       <ele>121.91</ele>
       <time>2014-11-08T01:00:24Z</time>
      </trkpt>
      <trkpt lat="50.248638" lon="3.631643">
       <ele>120.69</ele>
       <time>2014-11-08T01:01:06Z</time>
      </trkpt>
      <trkpt lat="50.248409" lon="3.632306">
       <ele>122.97</ele>
       <time>2014-11-08T01:01:16Z</time>
      </trkpt>
      <trkpt lat="50.248241" lon="3.632792">
       <ele>124.46</ele>
       <time>2014-11-08T01:01:23Z</time>
      </trkpt>
      <trkpt lat="50.247722" lon="3.634006">
       <ele>126.76</ele>
       <time>2014-11-08T01:01:42Z</time>
      </trkpt>
      <trkpt lat="50.247543" lon="3.634598">
       <ele>127.46</ele>
       <time>2014-11-08T01:01:51Z</time>
      </trkpt>
      <trkpt lat="50.247295" lon="3.635790">
       <ele>127.75</ele>
       <time>2014-11-08T01:02:08Z</time>
      </trkpt>
      <trkpt lat="50.246723" lon="3.636487">
       <ele>128.58</ele>
       <time>2014-11-08T01:02:23Z</time>
      </trkpt>
      <trkpt lat="50.246704" lon="3.636636">
       <ele>128.93</ele>
       <time>2014-11-08T01:02:25Z</time>
      </trkpt>
      <trkpt lat="50.246978" lon="3.637079">
       <ele>129.99</ele>
       <time>2014-11-08T01:02:33Z</time>
      </trkpt>
      <trkpt lat="50.246417" lon="3.637810">
       <ele>130.4</ele>
       <time>2014-11-08T01:02:48Z</time>
      </trkpt>
      <trkpt lat="50.246665" lon="3.638462">
       <ele>131.15</ele>
       <time>2014-11-08T01:02:58Z</time>
      </trkpt>
      <trkpt lat="50.246944" lon="3.639085">
       <ele>132.24</ele>
       <time>2014-11-08T01:03:08Z</time>
      </trkpt>
      <trkpt lat="50.247085" lon="3.639349">
       <ele>132.5</ele>
       <time>2014-11-08T01:03:13Z</time>
      </trkpt>
      <trkpt lat="50.247329" lon="3.638854">
       <ele>132.42</ele>
       <time>2014-11-08T01:03:21Z</time>
      </trkpt>
      <trkpt lat="50.247501" lon="3.638555">
       <ele>132.26</ele>
       <time>2014-11-08T01:03:26Z</time>
      </trkpt>
      <trkpt lat="50.247970" lon="3.639420">
       <ele>132.26</ele>
       <time>2014-11-08T01:03:41Z</time>
      </trkpt>
      <trkpt lat="50.248565" lon="3.641000">
       <ele>131.14</ele>
       <time>2014-11-08T01:04:06Z</time>
      </trkpt>
      <trkpt lat="50.249443" lon="3.643505">
       <ele>130.13</ele>
       <time>2014-11-08T01:04:44Z</time>
      </trkpt>
      <trkpt lat="50.247337" lon="3.644361">
       <ele>127.61</ele>
       <time>2014-11-08T01:05:29Z</time>
      </trkpt>
      <trkpt lat="50.247013" lon="3.644480">
       <ele>125.97</ele>
       <time>2014-11-08T01:05:36Z</time>
      </trkpt>
      <trkpt lat="50.246829" lon="3.644519">
       <ele>125.2</ele>
       <time>2014-11-08T01:05:39Z</time>
      </trkpt>
      <trkpt lat="50.246608" lon="3.644505">
       <ele>124.62</ele>
       <time>2014-11-08T01:05:44Z</time>
      </trkpt>
      <trkpt lat="50.246490" lon="3.644474">
       <ele>124.71</ele>
       <time>2014-11-08T01:05:47Z</time>
      </trkpt>
      <trkpt lat="50.246376" lon="3.644395">
       <ele>124.82</ele>
       <time>2014-11-08T01:05:49Z</time>
      </trkpt>
      <trkpt lat="50.246280" lon="3.644288">
       <ele>124.92</ele>
       <time>2014-11-08T01:05:52Z</time>
      </trkpt>
      <trkpt lat="50.246139" lon="3.644077">
       <ele>125.04</ele>
       <time>2014-11-08T01:05:56Z</time>
      </trkpt>
      <trkpt lat="50.246093" lon="3.643970">
       <ele>125.07</ele>
       <time>2014-11-08T01:05:57Z</time>
      </trkpt>
      <trkpt lat="50.245838" lon="3.643093">
       <ele>124.72</ele>
       <time>2014-11-08T01:06:10Z</time>
      </trkpt>
      <trkpt lat="50.245632" lon="3.642369">
       <ele>124.08</ele>
       <time>2014-11-08T01:06:21Z</time>
      </trkpt>
      <trkpt lat="50.245597" lon="3.642440">
       <ele>124.03</ele>
       <time>2014-11-08T01:06:22Z</time>
      </trkpt>
      <trkpt lat="50.245532" lon="3.642338">
       <ele>124.05</ele>
       <time>2014-11-08T01:06:24Z</time>
      </trkpt>
      <trkpt lat="50.245227" lon="3.641441">
       <ele>124.09</ele>
       <time>2014-11-08T01:06:37Z</time>
      </trkpt>
      <trkpt lat="50.245216" lon="3.641361">
       <ele>124.25</ele>
       <time>2014-11-08T01:06:38Z</time>
      </trkpt>
      <trkpt lat="50.244644" lon="3.640959">
       <ele>123.16</ele>
       <time>2014-11-08T01:06:51Z</time>
      </trkpt>
      <trkpt lat="50.244529" lon="3.640829">
       <ele>123.31</ele>
       <time>2014-11-08T01:06:54Z</time>
      </trkpt>
      <trkpt lat="50.243980" lon="3.639765">
       <ele>120.92</ele>
       <time>2014-11-08T01:07:12Z</time>
      </trkpt>
      <trkpt lat="50.243797" lon="3.639484">
       <ele>120.54</ele>
       <time>2014-11-08T01:07:18Z</time>
      </trkpt>
      <trkpt lat="50.243621" lon="3.639214">
       <ele>120.87</ele>
       <time>2014-11-08T01:07:23Z</time>
      </trkpt>
      <trkpt lat="50.243431" lon="3.638664">
       <ele>123.73</ele>
       <time>2014-11-08T01:07:31Z</time>
      </trkpt>
      <trkpt lat="50.243415" lon="3.638560">
       <ele>124.35</ele>
       <time>2014-11-08T01:07:32Z</time>
      </trkpt>
      <trkpt lat="50.243442" lon="3.638226">
       <ele>125.85</ele>
       <time>2014-11-08T01:07:37Z</time>
      </trkpt>
      <trkpt lat="50.243434" lon="3.638148">
       <ele>126.15</ele>
       <time>2014-11-08T01:07:38Z</time>
      </trkpt>
      <trkpt lat="50.243385" lon="3.638036">
       <ele>126.8</ele>
       <time>2014-11-08T01:07:40Z</time>
      </trkpt>
      <trkpt lat="50.243343" lon="3.637995">
       <ele>127.17</ele>
       <time>2014-11-08T01:07:41Z</time>
      </trkpt>
      <trkpt lat="50.243282" lon="3.637978">
       <ele>127.11</ele>
       <time>2014-11-08T01:07:42Z</time>
      </trkpt>
      <trkpt lat="50.242805" lon="3.637979">
       <ele>125.56</ele>
       <time>2014-11-08T01:07:52Z</time>
      </trkpt>
      <trkpt lat="50.242771" lon="3.637927">
       <ele>125.47</ele>
       <time>2014-11-08T01:07:53Z</time>
      </trkpt>
      <trkpt lat="50.242908" lon="3.637710">
       <ele>126.21</ele>
       <time>2014-11-08T01:07:57Z</time>
      </trkpt>
      <trkpt lat="50.242942" lon="3.637609">
       <ele>126.51</ele>
       <time>2014-11-08T01:07:59Z</time>
      </trkpt>
      <trkpt lat="50.243144" lon="3.636673">
       <ele>127.33</ele>
       <time>2014-11-08T01:08:12Z</time>
      </trkpt>
      <trkpt lat="50.243141" lon="3.636498">
       <ele>127.45</ele>
       <time>2014-11-08T01:08:14Z</time>
      </trkpt>
      <trkpt lat="50.243049" lon="3.635885">
       <ele>127.94</ele>
       <time>2014-11-08T01:08:22Z</time>
      </trkpt>
      <trkpt lat="50.243045" lon="3.635716">
       <ele>127.86</ele>
       <time>2014-11-08T01:08:25Z</time>
      </trkpt>
    </trkseg>
  </trk>
</gpx>
